<?xml version='1.0' encoding='UTF-8'?><gpx version="1.1" creator="JPX - https://github.com/jenetics/jpx" xmlns="http://www.topografix.com/GPX/1/1"><trk><trkseg><trkpt lat="45.7095216" lon="9.6019486"><ele>249.0</ele><time>2026-05-06T12:36:19.004Z</time></trkpt><trkpt lat="45.7094503" lon="9.6019014"><ele>249.0</ele><time>2026-05-06T12:36:25.924Z</time></trkpt><trkpt lat="45.7093866" lon="9.6018901"><ele>249.0</ele><time>2026-05-06T12:36:38.065Z</time></trkpt><trkpt lat="45.7093926" lon="9.60178"><ele>249.0</ele><time>2026-05-06T12:36:43.071Z</time></trkpt><trkpt lat="45.7094507" lon="9.6017226"><ele>249.0</ele><time>2026-05-06T12:36:48.632Z</time></trkpt><trkpt lat="45.7095118" lon="9.6016893"><ele>249.0</ele><time>2026-05-06T12:37:05.631Z</time></trkpt><trkpt lat="45.7094713" lon="9.6019263"><ele>249.75</ele><time>2026-05-06T12:37:08.623Z</time></trkpt><trkpt lat="45.7094468" lon="9.6020239"><ele>250.5</ele><time>2026-05-06T12:37:09.622Z</time></trkpt><trkpt lat="45.7094025" lon="9.6021044"><ele>251.25</ele><time>2026-05-06T12:37:17.623Z</time></trkpt><trkpt lat="45.7092905" lon="9.6023694"><ele>252.0</ele><time>2026-05-06T12:37:19.623Z</time></trkpt><trkpt lat="45.7092368" lon="9.6025042"><ele>252.0</ele><time>2026-05-06T12:37:20.635Z</time></trkpt><trkpt lat="45.7092093" lon="9.6026291"><ele>252.0</ele><time>2026-05-06T12:37:21.629Z</time></trkpt><trkpt lat="45.7091894" lon="9.6027737"><ele>252.0</ele><time>2026-05-06T12:37:23.628Z</time></trkpt><trkpt lat="45.7091391" lon="9.6028553"><ele>252.0</ele><time>2026-05-06T12:37:25.632Z</time></trkpt><trkpt lat="45.7090733" lon="9.602876"><ele>252.0</ele><time>2026-05-06T12:37:27.634Z</time></trkpt><trkpt lat="45.709006" lon="9.6029485"><ele>252.0</ele><time>2026-05-06T12:37:29.629Z</time></trkpt><trkpt lat="45.7089875" lon="9.6031043"><ele>252.16666666666666</ele><time>2026-05-06T12:37:31.628Z</time></trkpt><trkpt lat="45.70899" lon="9.6031946"><ele>252.33333333333331</ele><time>2026-05-06T12:37:32.627Z</time></trkpt><trkpt lat="45.7089949" lon="9.6032899"><ele>252.5</ele><time>2026-05-06T12:37:33.625Z</time></trkpt><trkpt lat="45.7089958" lon="9.6033965"><ele>252.66666666666666</ele><time>2026-05-06T12:37:34.638Z</time></trkpt><trkpt lat="45.7089987" lon="9.6035119"><ele>252.83333333333331</ele><time>2026-05-06T12:37:35.63Z</time></trkpt><trkpt lat="45.709001" lon="9.6036431"><ele>253.0</ele><time>2026-05-06T12:37:36.634Z</time></trkpt><trkpt lat="45.709003" lon="9.6037848"><ele>253.2</ele><time>2026-05-06T12:37:37.632Z</time></trkpt><trkpt lat="45.7090044" lon="9.6039279"><ele>253.4</ele><time>2026-05-06T12:37:38.629Z</time></trkpt><trkpt lat="45.7090046" lon="9.6040759"><ele>253.59999999999997</ele><time>2026-05-06T12:37:39.623Z</time></trkpt><trkpt lat="45.7090034" lon="9.6042133"><ele>253.79999999999998</ele><time>2026-05-06T12:37:40.631Z</time></trkpt><trkpt lat="45.7090039" lon="9.6043432"><ele>254.0</ele><time>2026-05-06T12:37:41.628Z</time></trkpt><trkpt lat="45.7090028" lon="9.6044598"><ele>254.16666666666669</ele><time>2026-05-06T12:37:42.633Z</time></trkpt><trkpt lat="45.7090019" lon="9.6045721"><ele>254.33333333333334</ele><time>2026-05-06T12:37:43.643Z</time></trkpt><trkpt lat="45.7090025" lon="9.6046687"><ele>254.5</ele><time>2026-05-06T12:37:44.629Z</time></trkpt><trkpt lat="45.7089847" lon="9.6047897"><ele>254.66666666666669</ele><time>2026-05-06T12:37:46.627Z</time></trkpt><trkpt lat="45.7089443" lon="9.6048664"><ele>254.83333333333334</ele><time>2026-05-06T12:37:48.64Z</time></trkpt><trkpt lat="45.7088774" lon="9.6048922"><ele>255.0</ele><time>2026-05-06T12:37:50.637Z</time></trkpt><trkpt lat="45.708775" lon="9.6048897"><ele>255.0</ele><time>2026-05-06T12:37:52.624Z</time></trkpt><trkpt lat="45.7087002" lon="9.6048976"><ele>255.0</ele><time>2026-05-06T12:37:53.641Z</time></trkpt><trkpt lat="45.7086179" lon="9.6048989"><ele>255.0</ele><time>2026-05-06T12:37:54.633Z</time></trkpt><trkpt lat="45.7085237" lon="9.604903"><ele>255.0</ele><time>2026-05-06T12:37:55.64Z</time></trkpt><trkpt lat="45.7084081" lon="9.6049079"><ele>255.0</ele><time>2026-05-06T12:37:56.642Z</time></trkpt><trkpt lat="45.7082929" lon="9.6049106"><ele>254.75</ele><time>2026-05-06T12:37:57.642Z</time></trkpt><trkpt lat="45.7081772" lon="9.604914"><ele>254.5</ele><time>2026-05-06T12:37:58.638Z</time></trkpt><trkpt lat="45.708061" lon="9.6049152"><ele>254.25</ele><time>2026-05-06T12:37:59.637Z</time></trkpt><trkpt lat="45.7079427" lon="9.6049131"><ele>254.0</ele><time>2026-05-06T12:38:00.638Z</time></trkpt><trkpt lat="45.7078248" lon="9.6049157"><ele>254.25</ele><time>2026-05-06T12:38:01.642Z</time></trkpt><trkpt lat="45.707713" lon="9.6049145"><ele>254.5</ele><time>2026-05-06T12:38:02.644Z</time></trkpt><trkpt lat="45.7076004" lon="9.6049137"><ele>254.75</ele><time>2026-05-06T12:38:03.644Z</time></trkpt><trkpt lat="45.7074889" lon="9.6049165"><ele>255.0</ele><time>2026-05-06T12:38:04.64Z</time></trkpt><trkpt lat="45.7073748" lon="9.6049215"><ele>255.0</ele><time>2026-05-06T12:38:05.651Z</time></trkpt><trkpt lat="45.7072599" lon="9.6049234"><ele>255.0</ele><time>2026-05-06T12:38:06.643Z</time></trkpt><trkpt lat="45.7071434" lon="9.6049268"><ele>255.0</ele><time>2026-05-06T12:38:07.626Z</time></trkpt><trkpt lat="45.7070349" lon="9.6049302"><ele>255.0</ele><time>2026-05-06T12:38:08.646Z</time></trkpt><trkpt lat="45.7069345" lon="9.6049339"><ele>255.0</ele><time>2026-05-06T12:38:09.647Z</time></trkpt><trkpt lat="45.7068497" lon="9.60494"><ele>254.4</ele><time>2026-05-06T12:38:10.639Z</time></trkpt><trkpt lat="45.7067802" lon="9.604944"><ele>253.8</ele><time>2026-05-06T12:38:11.638Z</time></trkpt><trkpt lat="45.7066708" lon="9.6048975"><ele>253.2</ele><time>2026-05-06T12:38:13.617Z</time></trkpt><trkpt lat="45.7065818" lon="9.6049279"><ele>252.6</ele><time>2026-05-06T12:38:15.639Z</time></trkpt><trkpt lat="45.7065534" lon="9.6050907"><ele>252.0</ele><time>2026-05-06T12:38:17.629Z</time></trkpt><trkpt lat="45.7065602" lon="9.6051865"><ele>252.39999999999998</ele><time>2026-05-06T12:38:18.634Z</time></trkpt><trkpt lat="45.7065819" lon="9.6053644"><ele>252.79999999999998</ele><time>2026-05-06T12:38:20.61Z</time></trkpt><trkpt lat="45.7065932" lon="9.6055042"><ele>253.2</ele><time>2026-05-06T12:38:22.63Z</time></trkpt><trkpt lat="45.7065122" lon="9.6055797"><ele>253.6</ele><time>2026-05-06T12:38:25.623Z</time></trkpt><trkpt lat="45.7063935" lon="9.6055686"><ele>254.0</ele><time>2026-05-06T12:38:27.635Z</time></trkpt><trkpt lat="45.7063174" lon="9.6055647"><ele>254.00000000000003</ele><time>2026-05-06T12:38:28.625Z</time></trkpt><trkpt lat="45.7062397" lon="9.6055558"><ele>254.0</ele><time>2026-05-06T12:38:29.638Z</time></trkpt><trkpt lat="45.7061673" lon="9.605556"><ele>254.0</ele><time>2026-05-06T12:38:30.625Z</time></trkpt><trkpt lat="45.7060954" lon="9.6055587"><ele>254.0</ele><time>2026-05-06T12:38:31.63Z</time></trkpt><trkpt lat="45.7060264" lon="9.6055589"><ele>254.00000000000003</ele><time>2026-05-06T12:38:32.63Z</time></trkpt><trkpt lat="45.7059624" lon="9.6055559"><ele>254.0</ele><time>2026-05-06T12:38:33.626Z</time></trkpt><trkpt lat="45.705854" lon="9.6055439"><ele>254.14285714285717</ele><time>2026-05-06T12:38:35.63Z</time></trkpt><trkpt lat="45.7057628" lon="9.6055218"><ele>254.28571428571428</ele><time>2026-05-06T12:38:37.626Z</time></trkpt><trkpt lat="45.7056855" lon="9.6055149"><ele>254.42857142857144</ele><time>2026-05-06T12:38:39.634Z</time></trkpt><trkpt lat="45.7056153" lon="9.6055399"><ele>254.57142857142858</ele><time>2026-05-06T12:39:22.626Z</time></trkpt><trkpt lat="45.7055706" lon="9.6056094"><ele>254.71428571428572</ele><time>2026-05-06T12:39:25.639Z</time></trkpt><trkpt lat="45.7055425" lon="9.6056961"><ele>254.85714285714286</ele><time>2026-05-06T12:39:28.643Z</time></trkpt><trkpt lat="45.7054926" lon="9.6057718"><ele>255.0</ele><time>2026-05-06T12:39:47.63Z</time></trkpt><trkpt lat="45.7053982" lon="9.605812"><ele>255.0</ele><time>2026-05-06T12:39:54.637Z</time></trkpt><trkpt lat="45.7052749" lon="9.6057699"><ele>255.0</ele><time>2026-05-06T12:39:56.645Z</time></trkpt><trkpt lat="45.7052057" lon="9.6057412"><ele>255.0</ele><time>2026-05-06T12:39:57.638Z</time></trkpt><trkpt lat="45.7051154" lon="9.6057093"><ele>255.0</ele><time>2026-05-06T12:39:58.641Z</time></trkpt><trkpt lat="45.7050256" lon="9.6056781"><ele>255.0</ele><time>2026-05-06T12:39:59.642Z</time></trkpt><trkpt lat="45.7049292" lon="9.6056471"><ele>255.0</ele><time>2026-05-06T12:40:00.633Z</time></trkpt><trkpt lat="45.7048352" lon="9.6056142"><ele>255.0</ele><time>2026-05-06T12:40:01.645Z</time></trkpt><trkpt lat="45.7047377" lon="9.6055829"><ele>255.0</ele><time>2026-05-06T12:40:02.651Z</time></trkpt><trkpt lat="45.7046395" lon="9.6055513"><ele>255.0</ele><time>2026-05-06T12:40:03.644Z</time></trkpt><trkpt lat="45.7045391" lon="9.6055204"><ele>255.0</ele><time>2026-05-06T12:40:04.649Z</time></trkpt><trkpt lat="45.7044362" lon="9.605488"><ele>254.5</ele><time>2026-05-06T12:40:05.643Z</time></trkpt><trkpt lat="45.7043302" lon="9.6054544"><ele>254.0</ele><time>2026-05-06T12:40:06.645Z</time></trkpt><trkpt lat="45.7042211" lon="9.6054197"><ele>253.5</ele><time>2026-05-06T12:40:07.621Z</time></trkpt><trkpt lat="45.7041081" lon="9.6053833"><ele>253.0</ele><time>2026-05-06T12:40:08.64Z</time></trkpt><trkpt lat="45.7039902" lon="9.6053471"><ele>252.5</ele><time>2026-05-06T12:40:09.641Z</time></trkpt><trkpt lat="45.7038726" lon="9.6053108"><ele>252.0</ele><time>2026-05-06T12:40:10.638Z</time></trkpt><trkpt lat="45.7037498" lon="9.605272"><ele>251.5</ele><time>2026-05-06T12:40:11.642Z</time></trkpt><trkpt lat="45.7036261" lon="9.6052331"><ele>251.0</ele><time>2026-05-06T12:40:12.641Z</time></trkpt><trkpt lat="45.7035031" lon="9.6051937"><ele>251.0</ele><time>2026-05-06T12:40:13.626Z</time></trkpt><trkpt lat="45.7033763" lon="9.6051548"><ele>251.0</ele><time>2026-05-06T12:40:14.641Z</time></trkpt><trkpt lat="45.7032469" lon="9.6051134"><ele>251.0</ele><time>2026-05-06T12:40:15.649Z</time></trkpt><trkpt lat="45.7031162" lon="9.6050724"><ele>251.0</ele><time>2026-05-06T12:40:16.641Z</time></trkpt><trkpt lat="45.7029831" lon="9.6050332"><ele>251.0</ele><time>2026-05-06T12:40:17.638Z</time></trkpt><trkpt lat="45.7028501" lon="9.6049922"><ele>251.0</ele><time>2026-05-06T12:40:18.629Z</time></trkpt><trkpt lat="45.7027138" lon="9.6049503"><ele>251.0</ele><time>2026-05-06T12:40:19.654Z</time></trkpt><trkpt lat="45.7025781" lon="9.6049083"><ele>251.0</ele><time>2026-05-06T12:40:20.646Z</time></trkpt><trkpt lat="45.7024442" lon="9.6048671"><ele>250.25</ele><time>2026-05-06T12:40:21.64Z</time></trkpt><trkpt lat="45.7023134" lon="9.6048261"><ele>249.5</ele><time>2026-05-06T12:40:22.649Z</time></trkpt><trkpt lat="45.7021823" lon="9.6047836"><ele>248.75</ele><time>2026-05-06T12:40:23.638Z</time></trkpt><trkpt lat="45.7020503" lon="9.6047408"><ele>248.0</ele><time>2026-05-06T12:40:24.641Z</time></trkpt><trkpt lat="45.7019142" lon="9.6046997"><ele>248.0</ele><time>2026-05-06T12:40:25.643Z</time></trkpt><trkpt lat="45.7017758" lon="9.6046578"><ele>248.0</ele><time>2026-05-06T12:40:26.624Z</time></trkpt><trkpt lat="45.7016321" lon="9.604616"><ele>248.0</ele><time>2026-05-06T12:40:27.645Z</time></trkpt><trkpt lat="45.7014858" lon="9.6045738"><ele>248.0</ele><time>2026-05-06T12:40:28.632Z</time></trkpt><trkpt lat="45.7013379" lon="9.6045294"><ele>248.33333333333334</ele><time>2026-05-06T12:40:29.639Z</time></trkpt><trkpt lat="45.7011881" lon="9.6044837"><ele>248.66666666666669</ele><time>2026-05-06T12:40:30.623Z</time></trkpt><trkpt lat="45.701037" lon="9.6044362"><ele>249.0</ele><time>2026-05-06T12:40:31.655Z</time></trkpt><trkpt lat="45.7008844" lon="9.6043887"><ele>249.0</ele><time>2026-05-06T12:40:32.626Z</time></trkpt><trkpt lat="45.7007296" lon="9.6043409"><ele>249.0</ele><time>2026-05-06T12:40:33.637Z</time></trkpt><trkpt lat="45.7005728" lon="9.6042931"><ele>249.0</ele><time>2026-05-06T12:40:34.646Z</time></trkpt><trkpt lat="45.7004179" lon="9.6042472"><ele>249.0</ele><time>2026-05-06T12:40:35.645Z</time></trkpt><trkpt lat="45.7002652" lon="9.6042023"><ele>249.0</ele><time>2026-05-06T12:40:36.652Z</time></trkpt><trkpt lat="45.7001135" lon="9.6041565"><ele>249.0</ele><time>2026-05-06T12:40:37.65Z</time></trkpt><trkpt lat="45.6999617" lon="9.6041149"><ele>249.0</ele><time>2026-05-06T12:40:38.638Z</time></trkpt><trkpt lat="45.6998099" lon="9.6040801"><ele>249.0</ele><time>2026-05-06T12:40:39.639Z</time></trkpt><trkpt lat="45.6996565" lon="9.6040301"><ele>249.0</ele><time>2026-05-06T12:40:40.654Z</time></trkpt><trkpt lat="45.6995035" lon="9.6039837"><ele>249.33333333333331</ele><time>2026-05-06T12:40:41.656Z</time></trkpt><trkpt lat="45.699349" lon="9.6039322"><ele>249.66666666666666</ele><time>2026-05-06T12:40:42.648Z</time></trkpt><trkpt lat="45.6991943" lon="9.6038841"><ele>250.0</ele><time>2026-05-06T12:40:43.656Z</time></trkpt><trkpt lat="45.6990393" lon="9.603832"><ele>250.0</ele><time>2026-05-06T12:40:44.647Z</time></trkpt><trkpt lat="45.6988862" lon="9.6037806"><ele>250.0</ele><time>2026-05-06T12:40:45.642Z</time></trkpt><trkpt lat="45.6987321" lon="9.6037313"><ele>250.0</ele><time>2026-05-06T12:40:46.645Z</time></trkpt><trkpt lat="45.6985788" lon="9.6036818"><ele>248.66666666666666</ele><time>2026-05-06T12:40:47.632Z</time></trkpt><trkpt lat="45.6984228" lon="9.6036332"><ele>247.33333333333331</ele><time>2026-05-06T12:40:48.647Z</time></trkpt><trkpt lat="45.6982655" lon="9.6035848"><ele>246.0</ele><time>2026-05-06T12:40:49.648Z</time></trkpt><trkpt lat="45.6981061" lon="9.603536"><ele>246.0</ele><time>2026-05-06T12:40:50.649Z</time></trkpt><trkpt lat="45.6979445" lon="9.6034869"><ele>246.0</ele><time>2026-05-06T12:40:51.647Z</time></trkpt><trkpt lat="45.6977809" lon="9.6034351"><ele>246.0</ele><time>2026-05-06T12:40:52.638Z</time></trkpt><trkpt lat="45.6976151" lon="9.6033819"><ele>245.66666666666669</ele><time>2026-05-06T12:40:53.642Z</time></trkpt><trkpt lat="45.6974488" lon="9.6033293"><ele>245.33333333333334</ele><time>2026-05-06T12:40:54.631Z</time></trkpt><trkpt lat="45.6972825" lon="9.603275"><ele>245.0</ele><time>2026-05-06T12:40:55.631Z</time></trkpt><trkpt lat="45.6971151" lon="9.6032213"><ele>245.0</ele><time>2026-05-06T12:40:56.631Z</time></trkpt><trkpt lat="45.696947" lon="9.6031663"><ele>245.0</ele><time>2026-05-06T12:40:57.647Z</time></trkpt><trkpt lat="45.6967767" lon="9.6031121"><ele>245.0</ele><time>2026-05-06T12:40:58.644Z</time></trkpt><trkpt lat="45.6966043" lon="9.6030573"><ele>245.0</ele><time>2026-05-06T12:40:59.647Z</time></trkpt><trkpt lat="45.6964312" lon="9.6030031"><ele>245.0</ele><time>2026-05-06T12:41:00.645Z</time></trkpt><trkpt lat="45.6962593" lon="9.6029496"><ele>245.0</ele><time>2026-05-06T12:41:01.636Z</time></trkpt><trkpt lat="45.6960891" lon="9.6028947"><ele>245.33333333333334</ele><time>2026-05-06T12:41:02.642Z</time></trkpt><trkpt lat="45.6959215" lon="9.602839"><ele>245.66666666666669</ele><time>2026-05-06T12:41:03.652Z</time></trkpt><trkpt lat="45.6957578" lon="9.6027893"><ele>246.0</ele><time>2026-05-06T12:41:04.638Z</time></trkpt><trkpt lat="45.6956033" lon="9.6027469"><ele>245.25</ele><time>2026-05-06T12:41:05.652Z</time></trkpt><trkpt lat="45.6954603" lon="9.6027098"><ele>244.5</ele><time>2026-05-06T12:41:06.644Z</time></trkpt><trkpt lat="45.6953279" lon="9.6026724"><ele>243.75</ele><time>2026-05-06T12:41:07.674Z</time></trkpt><trkpt lat="45.6952122" lon="9.6026322"><ele>243.0</ele><time>2026-05-06T12:41:08.626Z</time></trkpt><trkpt lat="45.6951194" lon="9.6025675"><ele>243.0</ele><time>2026-05-06T12:41:09.64Z</time></trkpt><trkpt lat="45.695035" lon="9.6024667"><ele>243.0</ele><time>2026-05-06T12:41:10.655Z</time></trkpt><trkpt lat="45.6949567" lon="9.6023618"><ele>243.0</ele><time>2026-05-06T12:41:11.646Z</time></trkpt><trkpt lat="45.6949185" lon="9.6022427"><ele>243.0</ele><time>2026-05-06T12:41:12.643Z</time></trkpt><trkpt lat="45.6948954" lon="9.6021112"><ele>243.0</ele><time>2026-05-06T12:41:13.645Z</time></trkpt><trkpt lat="45.6948965" lon="9.6019665"><ele>242.0</ele><time>2026-05-06T12:41:14.644Z</time></trkpt><trkpt lat="45.6949193" lon="9.6018161"><ele>241.0</ele><time>2026-05-06T12:41:15.654Z</time></trkpt><trkpt lat="45.6949612" lon="9.6016634"><ele>240.0</ele><time>2026-05-06T12:41:16.642Z</time></trkpt><trkpt lat="45.6950016" lon="9.6015018"><ele>239.0</ele><time>2026-05-06T12:41:17.646Z</time></trkpt><trkpt lat="45.6950466" lon="9.6013291"><ele>238.0</ele><time>2026-05-06T12:41:18.64Z</time></trkpt><trkpt lat="45.6950899" lon="9.6011384"><ele>237.0</ele><time>2026-05-06T12:41:19.642Z</time></trkpt><trkpt lat="45.6951322" lon="9.6009481"><ele>236.0</ele><time>2026-05-06T12:41:20.63Z</time></trkpt><trkpt lat="45.6951725" lon="9.6007567"><ele>235.0</ele><time>2026-05-06T12:41:21.637Z</time></trkpt><trkpt lat="45.6952147" lon="9.6005633"><ele>235.0</ele><time>2026-05-06T12:41:22.645Z</time></trkpt><trkpt lat="45.6952583" lon="9.6003674"><ele>235.0</ele><time>2026-05-06T12:41:23.628Z</time></trkpt><trkpt lat="45.6952991" lon="9.6001703"><ele>235.0</ele><time>2026-05-06T12:41:24.635Z</time></trkpt><trkpt lat="45.695339" lon="9.5999774"><ele>235.0</ele><time>2026-05-06T12:41:25.647Z</time></trkpt><trkpt lat="45.6953787" lon="9.5997872"><ele>234.75</ele><time>2026-05-06T12:41:26.658Z</time></trkpt><trkpt lat="45.6954159" lon="9.5995963"><ele>234.5</ele><time>2026-05-06T12:41:27.629Z</time></trkpt><trkpt lat="45.695454" lon="9.5994109"><ele>234.25</ele><time>2026-05-06T12:41:28.628Z</time></trkpt><trkpt lat="45.6954977" lon="9.5992396"><ele>234.0</ele><time>2026-05-06T12:41:29.647Z</time></trkpt><trkpt lat="45.6955367" lon="9.5990667"><ele>233.79999999999998</ele><time>2026-05-06T12:41:30.629Z</time></trkpt><trkpt lat="45.6955693" lon="9.5988989"><ele>233.59999999999997</ele><time>2026-05-06T12:41:31.634Z</time></trkpt><trkpt lat="45.695594" lon="9.5987408"><ele>233.4</ele><time>2026-05-06T12:41:32.657Z</time></trkpt><trkpt lat="45.6956132" lon="9.5985932"><ele>233.2</ele><time>2026-05-06T12:41:33.651Z</time></trkpt><trkpt lat="45.6956213" lon="9.598475"><ele>233.0</ele><time>2026-05-06T12:41:34.637Z</time></trkpt><trkpt lat="45.6956299" lon="9.5982832"><ele>231.5</ele><time>2026-05-06T12:41:35.637Z</time></trkpt><trkpt lat="45.6956318" lon="9.5980879"><ele>230.0</ele><time>2026-05-06T12:41:36.643Z</time></trkpt><trkpt lat="45.6956379" lon="9.5979051"><ele>228.5</ele><time>2026-05-06T12:41:37.646Z</time></trkpt><trkpt lat="45.6956455" lon="9.5977173"><ele>227.0</ele><time>2026-05-06T12:41:38.648Z</time></trkpt><trkpt lat="45.695656" lon="9.5975517"><ele>226.2857142857143</ele><time>2026-05-06T12:41:39.647Z</time></trkpt><trkpt lat="45.6956677" lon="9.5974181"><ele>225.5714285714286</ele><time>2026-05-06T12:41:40.637Z</time></trkpt><trkpt lat="45.6956811" lon="9.5973124"><ele>224.85714285714286</ele><time>2026-05-06T12:41:41.648Z</time></trkpt><trkpt lat="45.6957076" lon="9.5972274"><ele>224.14285714285717</ele><time>2026-05-06T12:41:42.631Z</time></trkpt><trkpt lat="45.6957423" lon="9.5971413"><ele>223.42857142857144</ele><time>2026-05-06T12:41:43.642Z</time></trkpt><trkpt lat="45.6957757" lon="9.5970611"><ele>222.71428571428572</ele><time>2026-05-06T12:41:44.642Z</time></trkpt><trkpt lat="45.6958205" lon="9.5969734"><ele>222.0</ele><time>2026-05-06T12:41:45.649Z</time></trkpt><trkpt lat="45.695881" lon="9.5968863"><ele>222.0</ele><time>2026-05-06T12:41:46.645Z</time></trkpt><trkpt lat="45.6959643" lon="9.5967878"><ele>222.0</ele><time>2026-05-06T12:41:47.639Z</time></trkpt><trkpt lat="45.6960458" lon="9.5966908"><ele>222.0</ele><time>2026-05-06T12:41:48.644Z</time></trkpt><trkpt lat="45.6961366" lon="9.5965909"><ele>222.0</ele><time>2026-05-06T12:41:49.635Z</time></trkpt><trkpt lat="45.6962294" lon="9.5964848"><ele>222.0</ele><time>2026-05-06T12:41:50.637Z</time></trkpt><trkpt lat="45.6963214" lon="9.5963798"><ele>222.0</ele><time>2026-05-06T12:41:51.633Z</time></trkpt><trkpt lat="45.6964125" lon="9.5962748"><ele>222.0</ele><time>2026-05-06T12:41:52.627Z</time></trkpt><trkpt lat="45.6965033" lon="9.596172"><ele>222.0</ele><time>2026-05-06T12:41:53.643Z</time></trkpt><trkpt lat="45.6965942" lon="9.5960703"><ele>222.0</ele><time>2026-05-06T12:41:54.647Z</time></trkpt><trkpt lat="45.6966857" lon="9.5959696"><ele>222.0</ele><time>2026-05-06T12:41:55.631Z</time></trkpt><trkpt lat="45.6967743" lon="9.5958698"><ele>222.0</ele><time>2026-05-06T12:41:56.631Z</time></trkpt><trkpt lat="45.6968631" lon="9.5957737"><ele>222.0</ele><time>2026-05-06T12:41:57.631Z</time></trkpt><trkpt lat="45.6969501" lon="9.5956791"><ele>222.0</ele><time>2026-05-06T12:41:58.638Z</time></trkpt><trkpt lat="45.6970413" lon="9.595586"><ele>222.0</ele><time>2026-05-06T12:41:59.632Z</time></trkpt><trkpt lat="45.6971339" lon="9.5954907"><ele>222.0</ele><time>2026-05-06T12:42:00.637Z</time></trkpt><trkpt lat="45.6972296" lon="9.5954063"><ele>222.0</ele><time>2026-05-06T12:42:01.642Z</time></trkpt><trkpt lat="45.6973274" lon="9.5953248"><ele>222.0</ele><time>2026-05-06T12:42:02.63Z</time></trkpt><trkpt lat="45.6974406" lon="9.5952353"><ele>222.0</ele><time>2026-05-06T12:42:03.641Z</time></trkpt><trkpt lat="45.6975416" lon="9.5951632"><ele>221.25</ele><time>2026-05-06T12:42:04.637Z</time></trkpt><trkpt lat="45.6976438" lon="9.5950956"><ele>220.5</ele><time>2026-05-06T12:42:05.639Z</time></trkpt><trkpt lat="45.6977493" lon="9.5950353"><ele>219.75</ele><time>2026-05-06T12:42:06.635Z</time></trkpt><trkpt lat="45.6978664" lon="9.5949715"><ele>219.0</ele><time>2026-05-06T12:42:07.64Z</time></trkpt><trkpt lat="45.6979819" lon="9.5949222"><ele>219.0</ele><time>2026-05-06T12:42:08.624Z</time></trkpt><trkpt lat="45.6980923" lon="9.5948768"><ele>219.0</ele><time>2026-05-06T12:42:09.635Z</time></trkpt><trkpt lat="45.6982116" lon="9.5948428"><ele>219.0</ele><time>2026-05-06T12:42:10.641Z</time></trkpt><trkpt lat="45.6983362" lon="9.5948121"><ele>219.0</ele><time>2026-05-06T12:42:11.634Z</time></trkpt><trkpt lat="45.6984693" lon="9.5947793"><ele>219.0</ele><time>2026-05-06T12:42:12.619Z</time></trkpt><trkpt lat="45.6985786" lon="9.5947531"><ele>218.99999999999997</ele><time>2026-05-06T12:42:13.634Z</time></trkpt><trkpt lat="45.698678" lon="9.5947298"><ele>218.99999999999997</ele><time>2026-05-06T12:42:14.631Z</time></trkpt><trkpt lat="45.698762" lon="9.5947118"><ele>219.0</ele><time>2026-05-06T12:42:15.621Z</time></trkpt><trkpt lat="45.6988297" lon="9.5946995"><ele>219.0</ele><time>2026-05-06T12:42:16.631Z</time></trkpt><trkpt lat="45.6989152" lon="9.5946836"><ele>219.33333333333334</ele><time>2026-05-06T12:42:18.631Z</time></trkpt><trkpt lat="45.6990099" lon="9.5946426"><ele>219.66666666666669</ele><time>2026-05-06T12:42:31.635Z</time></trkpt><trkpt lat="45.6991068" lon="9.5945987"><ele>220.0</ele><time>2026-05-06T12:42:33.633Z</time></trkpt><trkpt lat="45.6991838" lon="9.5945614"><ele>220.33333333333334</ele><time>2026-05-06T12:42:35.642Z</time></trkpt><trkpt lat="45.6992432" lon="9.5945193"><ele>220.66666666666669</ele><time>2026-05-06T12:42:37.631Z</time></trkpt><trkpt lat="45.6993155" lon="9.5944661"><ele>221.0</ele><time>2026-05-06T12:42:40.628Z</time></trkpt><trkpt lat="45.699398" lon="9.594409"><ele>221.5</ele><time>2026-05-06T12:42:43.639Z</time></trkpt><trkpt lat="45.6994574" lon="9.5943592"><ele>222.0</ele><time>2026-05-06T12:42:45.632Z</time></trkpt><trkpt lat="45.6995197" lon="9.5943114"><ele>222.5</ele><time>2026-05-06T12:42:47.627Z</time></trkpt><trkpt lat="45.6997152" lon="9.5940813"><ele>223.0</ele><time>2026-05-06T12:42:55.642Z</time></trkpt><trkpt lat="45.6997725" lon="9.5940026"><ele>222.99999999999997</ele><time>2026-05-06T12:42:58.633Z</time></trkpt><trkpt lat="45.6998222" lon="9.59394"><ele>223.0</ele><time>2026-05-06T12:43:12.633Z</time></trkpt><trkpt lat="45.6998846" lon="9.5938642"><ele>223.0</ele><time>2026-05-06T12:43:14.638Z</time></trkpt><trkpt lat="45.6999529" lon="9.5937862"><ele>223.0</ele><time>2026-05-06T12:43:16.633Z</time></trkpt><trkpt lat="45.7000076" lon="9.5936834"><ele>222.99999999999997</ele><time>2026-05-06T12:43:18.634Z</time></trkpt><trkpt lat="45.7000537" lon="9.593583"><ele>223.0</ele><time>2026-05-06T12:43:20.622Z</time></trkpt><trkpt lat="45.7000786" lon="9.5934906"><ele>223.66666666666666</ele><time>2026-05-06T12:43:24.619Z</time></trkpt><trkpt lat="45.7001188" lon="9.5934064"><ele>224.33333333333331</ele><time>2026-05-06T12:43:28.639Z</time></trkpt><trkpt lat="45.7001913" lon="9.5933646"><ele>225.0</ele><time>2026-05-06T12:43:30.66Z</time></trkpt><trkpt lat="45.7003187" lon="9.5933698"><ele>225.66666666666669</ele><time>2026-05-06T12:43:32.645Z</time></trkpt><trkpt lat="45.7003963" lon="9.5933773"><ele>226.33333333333334</ele><time>2026-05-06T12:43:33.636Z</time></trkpt><trkpt lat="45.7004734" lon="9.5933825"><ele>227.0</ele><time>2026-05-06T12:43:34.635Z</time></trkpt><trkpt lat="45.7005504" lon="9.5933717"><ele>227.00000000000003</ele><time>2026-05-06T12:43:35.626Z</time></trkpt><trkpt lat="45.7006264" lon="9.5933394"><ele>227.0</ele><time>2026-05-06T12:43:36.631Z</time></trkpt><trkpt lat="45.7006945" lon="9.5932767"><ele>227.0</ele><time>2026-05-06T12:43:37.635Z</time></trkpt><trkpt lat="45.7007379" lon="9.5931775"><ele>227.0</ele><time>2026-05-06T12:43:38.634Z</time></trkpt><trkpt lat="45.7007776" lon="9.5930742"><ele>227.00000000000003</ele><time>2026-05-06T12:43:39.638Z</time></trkpt><trkpt lat="45.700783" lon="9.5929662"><ele>227.0</ele><time>2026-05-06T12:43:40.638Z</time></trkpt><trkpt lat="45.7007628" lon="9.5928607"><ele>227.0</ele><time>2026-05-06T12:43:41.639Z</time></trkpt><trkpt lat="45.7007284" lon="9.592766"><ele>227.00000000000003</ele><time>2026-05-06T12:43:42.637Z</time></trkpt><trkpt lat="45.7006929" lon="9.5926778"><ele>227.0</ele><time>2026-05-06T12:43:43.636Z</time></trkpt><trkpt lat="45.7006574" lon="9.5925878"><ele>227.0</ele><time>2026-05-06T12:43:44.628Z</time></trkpt><trkpt lat="45.7006263" lon="9.5924932"><ele>227.00000000000003</ele><time>2026-05-06T12:43:45.635Z</time></trkpt><trkpt lat="45.7006119" lon="9.5923849"><ele>227.0</ele><time>2026-05-06T12:43:46.626Z</time></trkpt><trkpt lat="45.700609" lon="9.5922691"><ele>227.0</ele><time>2026-05-06T12:43:47.622Z</time></trkpt><trkpt lat="45.7006214" lon="9.5921456"><ele>227.0</ele><time>2026-05-06T12:43:48.636Z</time></trkpt><trkpt lat="45.7006528" lon="9.5920104"><ele>227.0</ele><time>2026-05-06T12:43:49.643Z</time></trkpt><trkpt lat="45.7006938" lon="9.591874"><ele>227.0</ele><time>2026-05-06T12:43:50.646Z</time></trkpt><trkpt lat="45.7007341" lon="9.5917269"><ele>227.0</ele><time>2026-05-06T12:43:51.638Z</time></trkpt><trkpt lat="45.7007645" lon="9.5915576"><ele>227.0</ele><time>2026-05-06T12:43:52.642Z</time></trkpt><trkpt lat="45.7007845" lon="9.5913731"><ele>227.75</ele><time>2026-05-06T12:43:53.637Z</time></trkpt><trkpt lat="45.7007883" lon="9.5911892"><ele>228.5</ele><time>2026-05-06T12:43:54.646Z</time></trkpt><trkpt lat="45.7007792" lon="9.591004"><ele>229.25</ele><time>2026-05-06T12:43:55.638Z</time></trkpt><trkpt lat="45.7007442" lon="9.5908298"><ele>230.0</ele><time>2026-05-06T12:43:56.621Z</time></trkpt><trkpt lat="45.70071" lon="9.5906665"><ele>230.0</ele><time>2026-05-06T12:43:57.638Z</time></trkpt><trkpt lat="45.7006594" lon="9.5904958"><ele>230.0</ele><time>2026-05-06T12:43:58.652Z</time></trkpt><trkpt lat="45.7006101" lon="9.5903314"><ele>230.0</ele><time>2026-05-06T12:43:59.637Z</time></trkpt><trkpt lat="45.700553" lon="9.5901645"><ele>230.0</ele><time>2026-05-06T12:44:00.638Z</time></trkpt><trkpt lat="45.7005017" lon="9.5899889"><ele>229.75</ele><time>2026-05-06T12:44:01.645Z</time></trkpt><trkpt lat="45.7004512" lon="9.589812"><ele>229.5</ele><time>2026-05-06T12:44:02.642Z</time></trkpt><trkpt lat="45.700411" lon="9.5896264"><ele>229.25</ele><time>2026-05-06T12:44:03.645Z</time></trkpt><trkpt lat="45.700363" lon="9.5894403"><ele>229.0</ele><time>2026-05-06T12:44:04.648Z</time></trkpt><trkpt lat="45.7003197" lon="9.5892486"><ele>229.5</ele><time>2026-05-06T12:44:05.644Z</time></trkpt><trkpt lat="45.7002809" lon="9.5890566"><ele>230.0</ele><time>2026-05-06T12:44:06.645Z</time></trkpt><trkpt lat="45.7002395" lon="9.5888653"><ele>230.5</ele><time>2026-05-06T12:44:07.653Z</time></trkpt><trkpt lat="45.700202" lon="9.5886628"><ele>231.0</ele><time>2026-05-06T12:44:08.644Z</time></trkpt><trkpt lat="45.7001661" lon="9.5884563"><ele>230.0</ele><time>2026-05-06T12:44:09.638Z</time></trkpt><trkpt lat="45.7001258" lon="9.5882457"><ele>229.0</ele><time>2026-05-06T12:44:10.63Z</time></trkpt><trkpt lat="45.7000896" lon="9.5880368"><ele>228.0</ele><time>2026-05-06T12:44:11.626Z</time></trkpt><trkpt lat="45.7000493" lon="9.5878233"><ele>228.0</ele><time>2026-05-06T12:44:12.646Z</time></trkpt><trkpt lat="45.7000095" lon="9.587612"><ele>228.0</ele><time>2026-05-06T12:44:13.638Z</time></trkpt><trkpt lat="45.6999693" lon="9.5873976"><ele>228.0</ele><time>2026-05-06T12:44:14.646Z</time></trkpt><trkpt lat="45.6999265" lon="9.5871843"><ele>231.33333333333331</ele><time>2026-05-06T12:44:15.64Z</time></trkpt><trkpt lat="45.6998871" lon="9.5869673"><ele>234.66666666666666</ele><time>2026-05-06T12:44:16.651Z</time></trkpt><trkpt lat="45.6998475" lon="9.5867479"><ele>238.0</ele><time>2026-05-06T12:44:17.65Z</time></trkpt><trkpt lat="45.6998061" lon="9.5865277"><ele>238.0</ele><time>2026-05-06T12:44:18.644Z</time></trkpt><trkpt lat="45.6997614" lon="9.5863056"><ele>238.0</ele><time>2026-05-06T12:44:19.639Z</time></trkpt><trkpt lat="45.6997196" lon="9.5860769"><ele>238.0</ele><time>2026-05-06T12:44:20.636Z</time></trkpt><trkpt lat="45.699679" lon="9.5858524"><ele>239.66666666666666</ele><time>2026-05-06T12:44:21.647Z</time></trkpt><trkpt lat="45.6996362" lon="9.5856198"><ele>241.33333333333331</ele><time>2026-05-06T12:44:22.639Z</time></trkpt><trkpt lat="45.6995905" lon="9.5853816"><ele>243.0</ele><time>2026-05-06T12:44:23.639Z</time></trkpt><trkpt lat="45.699547" lon="9.5851428"><ele>243.0</ele><time>2026-05-06T12:44:24.646Z</time></trkpt><trkpt lat="45.6995093" lon="9.5848909"><ele>243.0</ele><time>2026-05-06T12:44:25.624Z</time></trkpt><trkpt lat="45.6994813" lon="9.5846421"><ele>243.0</ele><time>2026-05-06T12:44:26.642Z</time></trkpt><trkpt lat="45.6994643" lon="9.5843964"><ele>243.0</ele><time>2026-05-06T12:44:27.635Z</time></trkpt><trkpt lat="45.699457" lon="9.5841558"><ele>243.0</ele><time>2026-05-06T12:44:28.621Z</time></trkpt><trkpt lat="45.6994595" lon="9.5839184"><ele>243.0</ele><time>2026-05-06T12:44:29.642Z</time></trkpt><trkpt lat="45.6994765" lon="9.5836786"><ele>243.0</ele><time>2026-05-06T12:44:30.644Z</time></trkpt><trkpt lat="45.6995046" lon="9.5834533"><ele>243.0</ele><time>2026-05-06T12:44:31.645Z</time></trkpt><trkpt lat="45.6995448" lon="9.5832371"><ele>243.0</ele><time>2026-05-06T12:44:32.643Z</time></trkpt><trkpt lat="45.6995925" lon="9.5830472"><ele>243.0</ele><time>2026-05-06T12:44:33.644Z</time></trkpt><trkpt lat="45.6996358" lon="9.5828691"><ele>243.0</ele><time>2026-05-06T12:44:34.644Z</time></trkpt><trkpt lat="45.6996771" lon="9.5826968"><ele>243.0</ele><time>2026-05-06T12:44:35.636Z</time></trkpt><trkpt lat="45.6997153" lon="9.5825283"><ele>243.0</ele><time>2026-05-06T12:44:36.64Z</time></trkpt><trkpt lat="45.699754" lon="9.5823675"><ele>242.4</ele><time>2026-05-06T12:44:37.644Z</time></trkpt><trkpt lat="45.6997924" lon="9.5822178"><ele>241.8</ele><time>2026-05-06T12:44:38.636Z</time></trkpt><trkpt lat="45.6998256" lon="9.582095"><ele>241.2</ele><time>2026-05-06T12:44:39.636Z</time></trkpt><trkpt lat="45.6998541" lon="9.5819675"><ele>240.6</ele><time>2026-05-06T12:44:40.64Z</time></trkpt><trkpt lat="45.6998846" lon="9.5818422"><ele>240.0</ele><time>2026-05-06T12:44:41.636Z</time></trkpt><trkpt lat="45.6999149" lon="9.5817033"><ele>240.0</ele><time>2026-05-06T12:44:42.629Z</time></trkpt><trkpt lat="45.6999444" lon="9.5815729"><ele>240.0</ele><time>2026-05-06T12:44:43.644Z</time></trkpt><trkpt lat="45.6999735" lon="9.5814353"><ele>240.0</ele><time>2026-05-06T12:44:44.637Z</time></trkpt><trkpt lat="45.7000095" lon="9.5813044"><ele>240.0</ele><time>2026-05-06T12:44:45.639Z</time></trkpt><trkpt lat="45.7000482" lon="9.5811705"><ele>240.0</ele><time>2026-05-06T12:44:46.635Z</time></trkpt><trkpt lat="45.700085" lon="9.5810316"><ele>239.8</ele><time>2026-05-06T12:44:47.643Z</time></trkpt><trkpt lat="45.7001201" lon="9.5808768"><ele>239.6</ele><time>2026-05-06T12:44:48.643Z</time></trkpt><trkpt lat="45.7001543" lon="9.5807311"><ele>239.39999999999998</ele><time>2026-05-06T12:44:49.632Z</time></trkpt><trkpt lat="45.700185" lon="9.5805829"><ele>239.2</ele><time>2026-05-06T12:44:50.641Z</time></trkpt><trkpt lat="45.7002193" lon="9.58043"><ele>239.0</ele><time>2026-05-06T12:44:51.623Z</time></trkpt><trkpt lat="45.7002442" lon="9.580249"><ele>239.5</ele><time>2026-05-06T12:44:52.646Z</time></trkpt><trkpt lat="45.7002833" lon="9.580064"><ele>240.0</ele><time>2026-05-06T12:44:53.651Z</time></trkpt><trkpt lat="45.7003181" lon="9.5798917"><ele>240.5</ele><time>2026-05-06T12:44:54.629Z</time></trkpt><trkpt lat="45.7003535" lon="9.5797093"><ele>241.0</ele><time>2026-05-06T12:44:55.645Z</time></trkpt><trkpt lat="45.7003899" lon="9.5795337"><ele>241.8</ele><time>2026-05-06T12:44:56.651Z</time></trkpt><trkpt lat="45.7004255" lon="9.5793683"><ele>242.60000000000002</ele><time>2026-05-06T12:44:57.631Z</time></trkpt><trkpt lat="45.7004598" lon="9.579229"><ele>243.4</ele><time>2026-05-06T12:44:58.646Z</time></trkpt><trkpt lat="45.7004875" lon="9.5791049"><ele>244.2</ele><time>2026-05-06T12:44:59.647Z</time></trkpt><trkpt lat="45.700511" lon="9.5790107"><ele>245.0</ele><time>2026-05-06T12:45:00.634Z</time></trkpt><trkpt lat="45.7005345" lon="9.5788494"><ele>245.2</ele><time>2026-05-06T12:45:02.631Z</time></trkpt><trkpt lat="45.7005488" lon="9.578681"><ele>245.4</ele><time>2026-05-06T12:45:04.651Z</time></trkpt><trkpt lat="45.700587" lon="9.5785002"><ele>245.60000000000002</ele><time>2026-05-06T12:45:06.649Z</time></trkpt><trkpt lat="45.7006265" lon="9.5784113"><ele>245.8</ele><time>2026-05-06T12:45:07.644Z</time></trkpt><trkpt lat="45.7006666" lon="9.578311"><ele>246.0</ele><time>2026-05-06T12:45:08.649Z</time></trkpt><trkpt lat="45.7007058" lon="9.5782165"><ele>246.0</ele><time>2026-05-06T12:45:09.625Z</time></trkpt><trkpt lat="45.7007264" lon="9.5780953"><ele>246.0</ele><time>2026-05-06T12:45:10.622Z</time></trkpt><trkpt lat="45.7007161" lon="9.5779649"><ele>246.0</ele><time>2026-05-06T12:45:11.62Z</time></trkpt><trkpt lat="45.7006794" lon="9.5778624"><ele>246.0</ele><time>2026-05-06T12:45:12.649Z</time></trkpt><trkpt lat="45.7006225" lon="9.5777929"><ele>246.0</ele><time>2026-05-06T12:45:13.623Z</time></trkpt><trkpt lat="45.7005579" lon="9.5777567"><ele>246.0</ele><time>2026-05-06T12:45:14.636Z</time></trkpt><trkpt lat="45.7004785" lon="9.577764"><ele>246.0</ele><time>2026-05-06T12:45:16.645Z</time></trkpt><trkpt lat="45.7004254" lon="9.5778657"><ele>246.00000000000003</ele><time>2026-05-06T12:45:18.638Z</time></trkpt><trkpt lat="45.7003657" lon="9.5779573"><ele>246.00000000000003</ele><time>2026-05-06T12:45:19.643Z</time></trkpt><trkpt lat="45.7002793" lon="9.5780263"><ele>246.0</ele><time>2026-05-06T12:45:20.63Z</time></trkpt><trkpt lat="45.7001329" lon="9.5780738"><ele>246.0</ele><time>2026-05-06T12:45:21.63Z</time></trkpt><trkpt lat="45.7000317" lon="9.5780895"><ele>245.0</ele><time>2026-05-06T12:45:22.638Z</time></trkpt><trkpt lat="45.6999032" lon="9.5781079"><ele>244.0</ele><time>2026-05-06T12:45:23.634Z</time></trkpt><trkpt lat="45.6997661" lon="9.5781118"><ele>243.0</ele><time>2026-05-06T12:45:24.642Z</time></trkpt><trkpt lat="45.6996411" lon="9.5781236"><ele>242.0</ele><time>2026-05-06T12:45:25.636Z</time></trkpt><trkpt lat="45.6994537" lon="9.578152"><ele>242.0</ele><time>2026-05-06T12:45:26.635Z</time></trkpt><trkpt lat="45.6992741" lon="9.5781733"><ele>242.0</ele><time>2026-05-06T12:45:27.643Z</time></trkpt><trkpt lat="45.6991131" lon="9.5781882"><ele>242.0</ele><time>2026-05-06T12:45:28.638Z</time></trkpt><trkpt lat="45.6989553" lon="9.5781989"><ele>242.0</ele><time>2026-05-06T12:45:29.634Z</time></trkpt><trkpt lat="45.6987921" lon="9.5782143"><ele>242.0</ele><time>2026-05-06T12:45:30.629Z</time></trkpt><trkpt lat="45.6986236" lon="9.5782351"><ele>242.0</ele><time>2026-05-06T12:45:31.632Z</time></trkpt><trkpt lat="45.6984612" lon="9.5782483"><ele>241.66666666666669</ele><time>2026-05-06T12:45:32.658Z</time></trkpt><trkpt lat="45.6983022" lon="9.5782601"><ele>241.33333333333331</ele><time>2026-05-06T12:45:33.639Z</time></trkpt><trkpt lat="45.698144" lon="9.5782737"><ele>241.0</ele><time>2026-05-06T12:45:34.635Z</time></trkpt><trkpt lat="45.6979843" lon="9.5782835"><ele>241.0</ele><time>2026-05-06T12:45:35.624Z</time></trkpt><trkpt lat="45.6978253" lon="9.5782942"><ele>241.0</ele><time>2026-05-06T12:45:36.636Z</time></trkpt><trkpt lat="45.6976685" lon="9.5783065"><ele>241.0</ele><time>2026-05-06T12:45:37.636Z</time></trkpt><trkpt lat="45.6975097" lon="9.5783206"><ele>240.66666666666666</ele><time>2026-05-06T12:45:38.626Z</time></trkpt><trkpt lat="45.6973525" lon="9.5783361"><ele>240.33333333333331</ele><time>2026-05-06T12:45:39.648Z</time></trkpt><trkpt lat="45.697199" lon="9.5783477"><ele>240.0</ele><time>2026-05-06T12:45:40.647Z</time></trkpt><trkpt lat="45.6970552" lon="9.578358"><ele>240.0</ele><time>2026-05-06T12:45:41.631Z</time></trkpt><trkpt lat="45.6969258" lon="9.5783651"><ele>240.0</ele><time>2026-05-06T12:45:42.642Z</time></trkpt><trkpt lat="45.696801" lon="9.5783735"><ele>240.0</ele><time>2026-05-06T12:45:43.627Z</time></trkpt><trkpt lat="45.6966749" lon="9.5783848"><ele>240.0</ele><time>2026-05-06T12:45:44.64Z</time></trkpt><trkpt lat="45.6965449" lon="9.5783958"><ele>239.5</ele><time>2026-05-06T12:45:45.626Z</time></trkpt><trkpt lat="45.6964106" lon="9.5784044"><ele>239.0</ele><time>2026-05-06T12:45:46.663Z</time></trkpt><trkpt lat="45.6962713" lon="9.5784107"><ele>238.5</ele><time>2026-05-06T12:45:47.646Z</time></trkpt><trkpt lat="45.6961303" lon="9.5784169"><ele>238.0</ele><time>2026-05-06T12:45:48.637Z</time></trkpt><trkpt lat="45.6959846" lon="9.5784243"><ele>237.75</ele><time>2026-05-06T12:45:49.631Z</time></trkpt><trkpt lat="45.6958417" lon="9.578429"><ele>237.5</ele><time>2026-05-06T12:45:50.633Z</time></trkpt><trkpt lat="45.6956972" lon="9.5784355"><ele>237.25</ele><time>2026-05-06T12:45:51.642Z</time></trkpt><trkpt lat="45.6955528" lon="9.5784405"><ele>237.0</ele><time>2026-05-06T12:45:52.632Z</time></trkpt><trkpt lat="45.6954135" lon="9.5784447"><ele>237.0</ele><time>2026-05-06T12:45:53.64Z</time></trkpt><trkpt lat="45.6952783" lon="9.5784476"><ele>237.0</ele><time>2026-05-06T12:45:54.638Z</time></trkpt><trkpt lat="45.6951385" lon="9.5784585"><ele>237.0</ele><time>2026-05-06T12:45:55.635Z</time></trkpt><trkpt lat="45.6950071" lon="9.5784647"><ele>237.0</ele><time>2026-05-06T12:45:56.634Z</time></trkpt><trkpt lat="45.6948674" lon="9.5784733"><ele>237.0</ele><time>2026-05-06T12:45:57.638Z</time></trkpt><trkpt lat="45.6947404" lon="9.5784779"><ele>237.0</ele><time>2026-05-06T12:45:58.64Z</time></trkpt><trkpt lat="45.6946118" lon="9.5784827"><ele>237.0</ele><time>2026-05-06T12:45:59.63Z</time></trkpt><trkpt lat="45.6944832" lon="9.5784866"><ele>237.0</ele><time>2026-05-06T12:46:00.631Z</time></trkpt><trkpt lat="45.6943627" lon="9.5784925"><ele>237.0</ele><time>2026-05-06T12:46:01.624Z</time></trkpt><trkpt lat="45.6942401" lon="9.5785092"><ele>237.0</ele><time>2026-05-06T12:46:02.64Z</time></trkpt><trkpt lat="45.694117" lon="9.5785239"><ele>237.0</ele><time>2026-05-06T12:46:03.634Z</time></trkpt><trkpt lat="45.6940213" lon="9.5785465"><ele>237.0</ele><time>2026-05-06T12:46:04.632Z</time></trkpt><trkpt lat="45.6939402" lon="9.5785646"><ele>237.0</ele><time>2026-05-06T12:46:05.623Z</time></trkpt><trkpt lat="45.6938709" lon="9.5785601"><ele>237.0</ele><time>2026-05-06T12:46:06.632Z</time></trkpt><trkpt lat="45.69379" lon="9.5785405"><ele>237.0</ele><time>2026-05-06T12:46:07.63Z</time></trkpt><trkpt lat="45.6936997" lon="9.5785388"><ele>237.0</ele><time>2026-05-06T12:46:08.623Z</time></trkpt><trkpt lat="45.6936123" lon="9.5785338"><ele>237.0</ele><time>2026-05-06T12:46:09.636Z</time></trkpt><trkpt lat="45.6935096" lon="9.5785744"><ele>237.0</ele><time>2026-05-06T12:46:10.629Z</time></trkpt><trkpt lat="45.6934114" lon="9.578626"><ele>236.5</ele><time>2026-05-06T12:46:11.62Z</time></trkpt><trkpt lat="45.6933135" lon="9.5786641"><ele>236.0</ele><time>2026-05-06T12:46:12.626Z</time></trkpt><trkpt lat="45.6931972" lon="9.5786565"><ele>235.5</ele><time>2026-05-06T12:46:13.63Z</time></trkpt><trkpt lat="45.6930702" lon="9.5786288"><ele>235.0</ele><time>2026-05-06T12:46:14.632Z</time></trkpt><trkpt lat="45.692934" lon="9.5785866"><ele>235.0</ele><time>2026-05-06T12:46:15.641Z</time></trkpt><trkpt lat="45.6928005" lon="9.5785359"><ele>235.0</ele><time>2026-05-06T12:46:16.633Z</time></trkpt><trkpt lat="45.6926646" lon="9.5784857"><ele>235.0</ele><time>2026-05-06T12:46:17.633Z</time></trkpt><trkpt lat="45.6925325" lon="9.5784224"><ele>235.0</ele><time>2026-05-06T12:46:18.64Z</time></trkpt><trkpt lat="45.6924086" lon="9.5783514"><ele>234.8</ele><time>2026-05-06T12:46:19.638Z</time></trkpt><trkpt lat="45.6923025" lon="9.578283"><ele>234.6</ele><time>2026-05-06T12:46:20.638Z</time></trkpt><trkpt lat="45.6922134" lon="9.5782231"><ele>234.39999999999998</ele><time>2026-05-06T12:46:21.632Z</time></trkpt><trkpt lat="45.6921412" lon="9.5781474"><ele>234.2</ele><time>2026-05-06T12:46:22.627Z</time></trkpt><trkpt lat="45.6920662" lon="9.578063"><ele>234.0</ele><time>2026-05-06T12:46:23.641Z</time></trkpt><trkpt lat="45.6919816" lon="9.5779729"><ele>234.25</ele><time>2026-05-06T12:46:24.65Z</time></trkpt><trkpt lat="45.6918877" lon="9.577881"><ele>234.5</ele><time>2026-05-06T12:46:25.64Z</time></trkpt><trkpt lat="45.6918017" lon="9.5777888"><ele>234.75</ele><time>2026-05-06T12:46:26.636Z</time></trkpt><trkpt lat="45.6917411" lon="9.5776653"><ele>235.0</ele><time>2026-05-06T12:46:27.641Z</time></trkpt><trkpt lat="45.6916677" lon="9.5775232"><ele>235.0</ele><time>2026-05-06T12:46:28.64Z</time></trkpt><trkpt lat="45.6915925" lon="9.5773676"><ele>235.0</ele><time>2026-05-06T12:46:29.629Z</time></trkpt><trkpt lat="45.6915173" lon="9.5772054"><ele>235.0</ele><time>2026-05-06T12:46:30.642Z</time></trkpt><trkpt lat="45.6914429" lon="9.5770382"><ele>235.0</ele><time>2026-05-06T12:46:31.625Z</time></trkpt><trkpt lat="45.6913633" lon="9.5768682"><ele>235.25</ele><time>2026-05-06T12:46:32.636Z</time></trkpt><trkpt lat="45.6912851" lon="9.5767002"><ele>235.5</ele><time>2026-05-06T12:46:33.637Z</time></trkpt><trkpt lat="45.6912031" lon="9.5765343"><ele>235.75</ele><time>2026-05-06T12:46:34.641Z</time></trkpt><trkpt lat="45.691125" lon="9.5763623"><ele>236.0</ele><time>2026-05-06T12:46:35.629Z</time></trkpt><trkpt lat="45.691047" lon="9.576198"><ele>235.75</ele><time>2026-05-06T12:46:36.635Z</time></trkpt><trkpt lat="45.6909664" lon="9.5760271"><ele>235.5</ele><time>2026-05-06T12:46:37.64Z</time></trkpt><trkpt lat="45.6908834" lon="9.5758548"><ele>235.25</ele><time>2026-05-06T12:46:38.636Z</time></trkpt><trkpt lat="45.6908001" lon="9.575678"><ele>235.0</ele><time>2026-05-06T12:46:39.629Z</time></trkpt><trkpt lat="45.6907069" lon="9.5754987"><ele>234.66666666666666</ele><time>2026-05-06T12:46:40.636Z</time></trkpt><trkpt lat="45.6906119" lon="9.5753279"><ele>234.33333333333331</ele><time>2026-05-06T12:46:41.638Z</time></trkpt><trkpt lat="45.6905164" lon="9.5751546"><ele>234.0</ele><time>2026-05-06T12:46:42.635Z</time></trkpt><trkpt lat="45.6904313" lon="9.5749728"><ele>234.0</ele><time>2026-05-06T12:46:43.649Z</time></trkpt><trkpt lat="45.6903453" lon="9.574799"><ele>234.0</ele><time>2026-05-06T12:46:44.626Z</time></trkpt><trkpt lat="45.6902626" lon="9.574633"><ele>234.0</ele><time>2026-05-06T12:46:45.633Z</time></trkpt><trkpt lat="45.6901759" lon="9.5744602"><ele>234.0</ele><time>2026-05-06T12:46:46.632Z</time></trkpt><trkpt lat="45.6900867" lon="9.574295"><ele>234.0</ele><time>2026-05-06T12:46:47.637Z</time></trkpt><trkpt lat="45.6899933" lon="9.5741327"><ele>234.0</ele><time>2026-05-06T12:46:48.639Z</time></trkpt><trkpt lat="45.6898854" lon="9.5739856"><ele>234.0</ele><time>2026-05-06T12:46:49.641Z</time></trkpt><trkpt lat="45.6897643" lon="9.5738586"><ele>234.0</ele><time>2026-05-06T12:46:50.621Z</time></trkpt><trkpt lat="45.6896448" lon="9.5737397"><ele>234.0</ele><time>2026-05-06T12:46:51.637Z</time></trkpt><trkpt lat="45.6895121" lon="9.5736491"><ele>234.0</ele><time>2026-05-06T12:46:52.628Z</time></trkpt><trkpt lat="45.6893783" lon="9.5735602"><ele>234.0</ele><time>2026-05-06T12:46:53.631Z</time></trkpt><trkpt lat="45.6892515" lon="9.573475"><ele>234.0</ele><time>2026-05-06T12:46:54.641Z</time></trkpt><trkpt lat="45.6891345" lon="9.5733982"><ele>233.79999999999998</ele><time>2026-05-06T12:46:55.639Z</time></trkpt><trkpt lat="45.6890311" lon="9.5733293"><ele>233.59999999999997</ele><time>2026-05-06T12:46:56.624Z</time></trkpt><trkpt lat="45.6889421" lon="9.5732722"><ele>233.4</ele><time>2026-05-06T12:46:57.635Z</time></trkpt><trkpt lat="45.6888618" lon="9.5732188"><ele>233.2</ele><time>2026-05-06T12:46:58.631Z</time></trkpt><trkpt lat="45.6887719" lon="9.5731664"><ele>233.0</ele><time>2026-05-06T12:47:00.638Z</time></trkpt><trkpt lat="45.6887096" lon="9.5731255"><ele>233.00000000000003</ele><time>2026-05-06T12:47:02.649Z</time></trkpt><trkpt lat="45.6886418" lon="9.5730846"><ele>233.0</ele><time>2026-05-06T12:47:05.627Z</time></trkpt><trkpt lat="45.6885757" lon="9.5730448"><ele>233.0</ele><time>2026-05-06T12:47:08.644Z</time></trkpt><trkpt lat="45.6885144" lon="9.5730133"><ele>233.0</ele><time>2026-05-06T12:47:10.626Z</time></trkpt><trkpt lat="45.6884213" lon="9.5729505"><ele>233.00000000000003</ele><time>2026-05-06T12:47:12.649Z</time></trkpt><trkpt lat="45.6883242" lon="9.5728659"><ele>233.0</ele><time>2026-05-06T12:47:14.632Z</time></trkpt><trkpt lat="45.6882745" lon="9.5728098"><ele>232.83333333333334</ele><time>2026-05-06T12:47:15.625Z</time></trkpt><trkpt lat="45.6882282" lon="9.572746"><ele>232.66666666666669</ele><time>2026-05-06T12:47:16.633Z</time></trkpt><trkpt lat="45.6881567" lon="9.5726128"><ele>232.5</ele><time>2026-05-06T12:47:18.64Z</time></trkpt><trkpt lat="45.6881267" lon="9.5725278"><ele>232.33333333333331</ele><time>2026-05-06T12:47:19.635Z</time></trkpt><trkpt lat="45.688092" lon="9.5724499"><ele>232.16666666666666</ele><time>2026-05-06T12:47:20.642Z</time></trkpt><trkpt lat="45.6880193" lon="9.5723614"><ele>232.0</ele><time>2026-05-06T12:47:22.628Z</time></trkpt><trkpt lat="45.6879504" lon="9.5723471"><ele>231.99999999999997</ele><time>2026-05-06T12:47:24.636Z</time></trkpt><trkpt lat="45.6878772" lon="9.5723567"><ele>232.0</ele><time>2026-05-06T12:47:26.624Z</time></trkpt><trkpt lat="45.6877761" lon="9.5724067"><ele>232.0</ele><time>2026-05-06T12:47:28.643Z</time></trkpt><trkpt lat="45.6876637" lon="9.5724443"><ele>232.0</ele><time>2026-05-06T12:47:30.638Z</time></trkpt><trkpt lat="45.687598" lon="9.5724396"><ele>231.99999999999997</ele><time>2026-05-06T12:47:31.618Z</time></trkpt><trkpt lat="45.6875267" lon="9.5724156"><ele>232.0</ele><time>2026-05-06T12:47:32.633Z</time></trkpt><trkpt lat="45.6874564" lon="9.5723697"><ele>231.66666666666666</ele><time>2026-05-06T12:47:33.646Z</time></trkpt><trkpt lat="45.6873894" lon="9.5723211"><ele>231.33333333333331</ele><time>2026-05-06T12:47:34.639Z</time></trkpt><trkpt lat="45.6873185" lon="9.5722683"><ele>231.0</ele><time>2026-05-06T12:47:35.614Z</time></trkpt><trkpt lat="45.6872509" lon="9.5722203"><ele>230.66666666666669</ele><time>2026-05-06T12:47:36.634Z</time></trkpt><trkpt lat="45.6871781" lon="9.5721687"><ele>230.33333333333334</ele><time>2026-05-06T12:47:37.639Z</time></trkpt><trkpt lat="45.6871146" lon="9.5721126"><ele>230.0</ele><time>2026-05-06T12:47:38.64Z</time></trkpt><trkpt lat="45.6870407" lon="9.5720643"><ele>229.99999999999997</ele><time>2026-05-06T12:47:39.632Z</time></trkpt><trkpt lat="45.6869693" lon="9.5720141"><ele>230.0</ele><time>2026-05-06T12:47:40.636Z</time></trkpt><trkpt lat="45.6868974" lon="9.571967"><ele>229.99999999999997</ele><time>2026-05-06T12:47:41.643Z</time></trkpt><trkpt lat="45.6868307" lon="9.5719162"><ele>229.99999999999997</ele><time>2026-05-06T12:47:42.642Z</time></trkpt><trkpt lat="45.6867668" lon="9.571869"><ele>230.0</ele><time>2026-05-06T12:47:43.638Z</time></trkpt><trkpt lat="45.686703" lon="9.5718214"><ele>229.99999999999997</ele><time>2026-05-06T12:47:44.639Z</time></trkpt><trkpt lat="45.6866401" lon="9.5717762"><ele>229.99999999999997</ele><time>2026-05-06T12:47:45.649Z</time></trkpt><trkpt lat="45.6865764" lon="9.5717314"><ele>230.00000000000003</ele><time>2026-05-06T12:47:46.632Z</time></trkpt><trkpt lat="45.6864581" lon="9.5716489"><ele>230.0</ele><time>2026-05-06T12:47:48.638Z</time></trkpt><trkpt lat="45.686394" lon="9.5716047"><ele>230.0</ele><time>2026-05-06T12:47:49.631Z</time></trkpt><trkpt lat="45.6863281" lon="9.5715605"><ele>230.0</ele><time>2026-05-06T12:47:50.631Z</time></trkpt><trkpt lat="45.6862652" lon="9.571515"><ele>230.00000000000003</ele><time>2026-05-06T12:47:51.639Z</time></trkpt><trkpt lat="45.6862021" lon="9.5714709"><ele>230.0</ele><time>2026-05-06T12:47:52.642Z</time></trkpt><trkpt lat="45.6861411" lon="9.5714269"><ele>230.0</ele><time>2026-05-06T12:47:53.627Z</time></trkpt><trkpt lat="45.6860265" lon="9.5713494"><ele>230.0</ele><time>2026-05-06T12:47:55.642Z</time></trkpt><trkpt lat="45.6859185" lon="9.5712772"><ele>230.0</ele><time>2026-05-06T12:47:57.649Z</time></trkpt><trkpt lat="45.6858012" lon="9.5712067"><ele>230.0</ele><time>2026-05-06T12:47:59.637Z</time></trkpt><trkpt lat="45.6857187" lon="9.5711588"><ele>229.57142857142856</ele><time>2026-05-06T12:48:01.631Z</time></trkpt><trkpt lat="45.6856584" lon="9.571129"><ele>229.14285714285714</ele><time>2026-05-06T12:48:06.643Z</time></trkpt><trkpt lat="45.6855976" lon="9.571087"><ele>228.71428571428572</ele><time>2026-05-06T12:48:10.633Z</time></trkpt><trkpt lat="45.68553" lon="9.571042"><ele>228.28571428571428</ele><time>2026-05-06T12:48:15.635Z</time></trkpt><trkpt lat="45.6854665" lon="9.5709982"><ele>227.8571428571429</ele><time>2026-05-06T12:48:20.631Z</time></trkpt><trkpt lat="45.6853985" lon="9.5709493"><ele>227.42857142857144</ele><time>2026-05-06T12:48:23.629Z</time></trkpt><trkpt lat="45.685339" lon="9.5709025"><ele>227.0</ele><time>2026-05-06T12:48:25.643Z</time></trkpt><trkpt lat="45.6852858" lon="9.570846"><ele>227.16666666666669</ele><time>2026-05-06T12:48:27.637Z</time></trkpt><trkpt lat="45.6852307" lon="9.5707611"><ele>227.33333333333334</ele><time>2026-05-06T12:48:29.644Z</time></trkpt><trkpt lat="45.6851937" lon="9.5706881"><ele>227.5</ele><time>2026-05-06T12:48:30.628Z</time></trkpt><trkpt lat="45.6851574" lon="9.5706056"><ele>227.66666666666669</ele><time>2026-05-06T12:48:31.649Z</time></trkpt><trkpt lat="45.6851112" lon="9.5705158"><ele>227.83333333333334</ele><time>2026-05-06T12:48:32.636Z</time></trkpt><trkpt lat="45.6850547" lon="9.5704277"><ele>228.0</ele><time>2026-05-06T12:48:33.638Z</time></trkpt><trkpt lat="45.684984" lon="9.570353"><ele>228.0</ele><time>2026-05-06T12:48:34.636Z</time></trkpt><trkpt lat="45.6849142" lon="9.5702818"><ele>228.0</ele><time>2026-05-06T12:48:35.634Z</time></trkpt><trkpt lat="45.6848234" lon="9.5702379"><ele>228.0</ele><time>2026-05-06T12:48:36.629Z</time></trkpt><trkpt lat="45.6847229" lon="9.5702189"><ele>228.0</ele><time>2026-05-06T12:48:37.637Z</time></trkpt><trkpt lat="45.6846244" lon="9.5702225"><ele>228.0</ele><time>2026-05-06T12:48:38.635Z</time></trkpt><trkpt lat="45.6845254" lon="9.5702289"><ele>228.0</ele><time>2026-05-06T12:48:39.633Z</time></trkpt><trkpt lat="45.6844223" lon="9.5702307"><ele>228.0</ele><time>2026-05-06T12:48:40.635Z</time></trkpt><trkpt lat="45.6843205" lon="9.5702041"><ele>228.0</ele><time>2026-05-06T12:48:41.65Z</time></trkpt><trkpt lat="45.6842181" lon="9.5701582"><ele>228.0</ele><time>2026-05-06T12:48:42.637Z</time></trkpt><trkpt lat="45.6841153" lon="9.5701131"><ele>228.0</ele><time>2026-05-06T12:48:43.643Z</time></trkpt><trkpt lat="45.6840133" lon="9.5700438"><ele>228.0</ele><time>2026-05-06T12:48:44.626Z</time></trkpt><trkpt lat="45.6839097" lon="9.5699739"><ele>228.0</ele><time>2026-05-06T12:48:45.627Z</time></trkpt><trkpt lat="45.6838009" lon="9.5698995"><ele>228.0</ele><time>2026-05-06T12:48:46.636Z</time></trkpt><trkpt lat="45.6836887" lon="9.5698255"><ele>228.0</ele><time>2026-05-06T12:48:47.642Z</time></trkpt><trkpt lat="45.6835759" lon="9.5697508"><ele>227.75</ele><time>2026-05-06T12:48:48.624Z</time></trkpt><trkpt lat="45.6834615" lon="9.5696721"><ele>227.5</ele><time>2026-05-06T12:48:49.639Z</time></trkpt><trkpt lat="45.6833456" lon="9.569595"><ele>227.25</ele><time>2026-05-06T12:48:50.639Z</time></trkpt><trkpt lat="45.6832295" lon="9.5695197"><ele>227.0</ele><time>2026-05-06T12:48:51.631Z</time></trkpt><trkpt lat="45.6831206" lon="9.5694476"><ele>227.0</ele><time>2026-05-06T12:48:52.642Z</time></trkpt><trkpt lat="45.6830152" lon="9.5693768"><ele>227.0</ele><time>2026-05-06T12:48:53.632Z</time></trkpt><trkpt lat="45.6829095" lon="9.5693069"><ele>227.0</ele><time>2026-05-06T12:48:54.637Z</time></trkpt><trkpt lat="45.6828045" lon="9.5692382"><ele>227.0</ele><time>2026-05-06T12:48:55.636Z</time></trkpt><trkpt lat="45.6827029" lon="9.5691675"><ele>227.00000000000003</ele><time>2026-05-06T12:48:56.645Z</time></trkpt><trkpt lat="45.6826079" lon="9.5690962"><ele>227.0</ele><time>2026-05-06T12:48:57.637Z</time></trkpt><trkpt lat="45.6825329" lon="9.5690216"><ele>227.0</ele><time>2026-05-06T12:48:58.642Z</time></trkpt><trkpt lat="45.6824808" lon="9.5689468"><ele>227.0</ele><time>2026-05-06T12:48:59.647Z</time></trkpt><trkpt lat="45.6824475" lon="9.568858"><ele>227.00000000000003</ele><time>2026-05-06T12:49:00.621Z</time></trkpt><trkpt lat="45.6824081" lon="9.5687648"><ele>227.0</ele><time>2026-05-06T12:49:01.645Z</time></trkpt><trkpt lat="45.6823607" lon="9.5686781"><ele>227.0</ele><time>2026-05-06T12:49:02.636Z</time></trkpt><trkpt lat="45.6822816" lon="9.5686267"><ele>227.0</ele><time>2026-05-06T12:49:03.634Z</time></trkpt><trkpt lat="45.6821908" lon="9.5686091"><ele>227.0</ele><time>2026-05-06T12:49:04.638Z</time></trkpt><trkpt lat="45.6820976" lon="9.5686165"><ele>227.0</ele><time>2026-05-06T12:49:05.642Z</time></trkpt><trkpt lat="45.6819986" lon="9.5686273"><ele>227.0</ele><time>2026-05-06T12:49:06.624Z</time></trkpt><trkpt lat="45.6819018" lon="9.5686334"><ele>227.0</ele><time>2026-05-06T12:49:07.637Z</time></trkpt><trkpt lat="45.681803" lon="9.5685982"><ele>227.0</ele><time>2026-05-06T12:49:08.627Z</time></trkpt><trkpt lat="45.6817018" lon="9.5685372"><ele>227.0</ele><time>2026-05-06T12:49:09.639Z</time></trkpt><trkpt lat="45.6815892" lon="9.5684611"><ele>227.0</ele><time>2026-05-06T12:49:10.634Z</time></trkpt><trkpt lat="45.6814698" lon="9.5683817"><ele>227.0</ele><time>2026-05-06T12:49:11.636Z</time></trkpt><trkpt lat="45.6813412" lon="9.5682969"><ele>227.0</ele><time>2026-05-06T12:49:12.629Z</time></trkpt><trkpt lat="45.6812153" lon="9.5682155"><ele>227.0</ele><time>2026-05-06T12:49:13.633Z</time></trkpt><trkpt lat="45.6810979" lon="9.5681356"><ele>227.0</ele><time>2026-05-06T12:49:14.63Z</time></trkpt><trkpt lat="45.680978" lon="9.5680542"><ele>226.8</ele><time>2026-05-06T12:49:15.628Z</time></trkpt><trkpt lat="45.6808629" lon="9.5679732"><ele>226.6</ele><time>2026-05-06T12:49:16.627Z</time></trkpt><trkpt lat="45.6807547" lon="9.5678975"><ele>226.40000000000003</ele><time>2026-05-06T12:49:17.638Z</time></trkpt><trkpt lat="45.6806551" lon="9.5678284"><ele>226.20000000000002</ele><time>2026-05-06T12:49:18.623Z</time></trkpt><trkpt lat="45.6805811" lon="9.5677783"><ele>226.0</ele><time>2026-05-06T12:49:19.639Z</time></trkpt><trkpt lat="45.6805133" lon="9.5677334"><ele>226.0</ele><time>2026-05-06T12:49:21.639Z</time></trkpt><trkpt lat="45.6804159" lon="9.5677736"><ele>226.00000000000003</ele><time>2026-05-06T12:49:24.638Z</time></trkpt><trkpt lat="45.6804108" lon="9.5679531"><ele>226.00000000000003</ele><time>2026-05-06T12:49:26.631Z</time></trkpt><trkpt lat="45.6804221" lon="9.5680503"><ele>226.0</ele><time>2026-05-06T12:49:27.633Z</time></trkpt><trkpt lat="45.6804417" lon="9.5681637"><ele>226.0</ele><time>2026-05-06T12:49:28.635Z</time></trkpt><trkpt lat="45.6804661" lon="9.5682949"><ele>225.99999999999997</ele><time>2026-05-06T12:49:29.637Z</time></trkpt><trkpt lat="45.680491" lon="9.5684389"><ele>226.0</ele><time>2026-05-06T12:49:30.637Z</time></trkpt><trkpt lat="45.6805106" lon="9.5685689"><ele>226.0</ele><time>2026-05-06T12:49:31.637Z</time></trkpt><trkpt lat="45.6805254" lon="9.5686797"><ele>226.0</ele><time>2026-05-06T12:49:32.635Z</time></trkpt><trkpt lat="45.6805414" lon="9.5687832"><ele>225.99999999999997</ele><time>2026-05-06T12:49:33.643Z</time></trkpt><trkpt lat="45.6805645" lon="9.5688737"><ele>226.0</ele><time>2026-05-06T12:49:34.629Z</time></trkpt><trkpt lat="45.6805933" lon="9.5689959"><ele>226.0</ele><time>2026-05-06T12:49:36.641Z</time></trkpt><trkpt lat="45.6807198" lon="9.5690254"><ele>226.00000000000003</ele><time>2026-05-06T12:51:57.633Z</time></trkpt><trkpt lat="45.6806902" lon="9.5689249"><ele>226.00000000000003</ele><time>2026-05-06T13:06:58.643Z</time></trkpt><trkpt lat="45.680659" lon="9.5688014"><ele>226.0</ele><time>2026-05-06T13:07:00.685Z</time></trkpt><trkpt lat="45.6806155" lon="9.5686796"><ele>226.0</ele><time>2026-05-06T13:07:02.629Z</time></trkpt><trkpt lat="45.6805844" lon="9.5685238"><ele>226.0</ele><time>2026-05-06T13:07:04.635Z</time></trkpt><trkpt lat="45.6805536" lon="9.5683706"><ele>226.00000000000003</ele><time>2026-05-06T13:07:06.638Z</time></trkpt><trkpt lat="45.6805265" lon="9.5682322"><ele>226.00000000000003</ele><time>2026-05-06T13:07:08.627Z</time></trkpt><trkpt lat="45.6804972" lon="9.5680938"><ele>226.0</ele><time>2026-05-06T13:07:10.635Z</time></trkpt><trkpt lat="45.6804745" lon="9.5679647"><ele>226.0</ele><time>2026-05-06T13:07:12.617Z</time></trkpt><trkpt lat="45.6804863" lon="9.5678744"><ele>226.0</ele><time>2026-05-06T13:07:14.634Z</time></trkpt><trkpt lat="45.6805506" lon="9.5678355"><ele>226.00000000000003</ele><time>2026-05-06T13:07:17.635Z</time></trkpt><trkpt lat="45.6806476" lon="9.5679006"><ele>226.00000000000003</ele><time>2026-05-06T13:07:19.634Z</time></trkpt><trkpt lat="45.6807581" lon="9.5679928"><ele>226.0</ele><time>2026-05-06T13:07:21.639Z</time></trkpt><trkpt lat="45.6808247" lon="9.5680514"><ele>226.0</ele><time>2026-05-06T13:07:22.636Z</time></trkpt><trkpt lat="45.6808924" lon="9.5681042"><ele>226.0</ele><time>2026-05-06T13:07:23.647Z</time></trkpt><trkpt lat="45.6809581" lon="9.5681552"><ele>226.00000000000003</ele><time>2026-05-06T13:07:24.632Z</time></trkpt><trkpt lat="45.6810367" lon="9.5682206"><ele>226.00000000000003</ele><time>2026-05-06T13:07:25.634Z</time></trkpt><trkpt lat="45.6811196" lon="9.5682818"><ele>226.0</ele><time>2026-05-06T13:07:26.643Z</time></trkpt><trkpt lat="45.6812057" lon="9.5683389"><ele>226.0</ele><time>2026-05-06T13:07:27.62Z</time></trkpt><trkpt lat="45.6813038" lon="9.5684063"><ele>226.20000000000002</ele><time>2026-05-06T13:07:28.647Z</time></trkpt><trkpt lat="45.6813977" lon="9.5684676"><ele>226.40000000000003</ele><time>2026-05-06T13:07:29.627Z</time></trkpt><trkpt lat="45.6814907" lon="9.5685305"><ele>226.6</ele><time>2026-05-06T13:07:30.652Z</time></trkpt><trkpt lat="45.6815821" lon="9.5685909"><ele>226.8</ele><time>2026-05-06T13:07:31.654Z</time></trkpt><trkpt lat="45.6816728" lon="9.5686515"><ele>227.0</ele><time>2026-05-06T13:07:32.627Z</time></trkpt><trkpt lat="45.6817569" lon="9.5687101"><ele>227.16666666666669</ele><time>2026-05-06T13:07:33.647Z</time></trkpt><trkpt lat="45.6818358" lon="9.5687686"><ele>227.33333333333334</ele><time>2026-05-06T13:07:34.644Z</time></trkpt><trkpt lat="45.6819129" lon="9.5688241"><ele>227.5</ele><time>2026-05-06T13:07:35.632Z</time></trkpt><trkpt lat="45.6819657" lon="9.5688779"><ele>227.66666666666669</ele><time>2026-05-06T13:07:36.638Z</time></trkpt><trkpt lat="45.682038" lon="9.5690214"><ele>227.83333333333334</ele><time>2026-05-06T13:07:38.638Z</time></trkpt><trkpt lat="45.6820659" lon="9.5691144"><ele>228.0</ele><time>2026-05-06T13:07:39.646Z</time></trkpt><trkpt lat="45.6821564" lon="9.5692416"><ele>228.0</ele><time>2026-05-06T13:07:41.627Z</time></trkpt><trkpt lat="45.6822129" lon="9.5692885"><ele>227.99999999999997</ele><time>2026-05-06T13:07:42.649Z</time></trkpt><trkpt lat="45.682277" lon="9.5693016"><ele>228.0</ele><time>2026-05-06T13:07:43.635Z</time></trkpt><trkpt lat="45.682347" lon="9.5692769"><ele>228.0</ele><time>2026-05-06T13:07:44.64Z</time></trkpt><trkpt lat="45.682417" lon="9.5692505"><ele>227.99999999999997</ele><time>2026-05-06T13:07:45.631Z</time></trkpt><trkpt lat="45.6824977" lon="9.5692373"><ele>228.0</ele><time>2026-05-06T13:07:46.636Z</time></trkpt><trkpt lat="45.6825767" lon="9.569244"><ele>228.0</ele><time>2026-05-06T13:07:47.642Z</time></trkpt><trkpt lat="45.6826567" lon="9.5692527"><ele>228.0</ele><time>2026-05-06T13:07:48.64Z</time></trkpt><trkpt lat="45.682733" lon="9.5693027"><ele>228.0</ele><time>2026-05-06T13:07:49.634Z</time></trkpt><trkpt lat="45.6828083" lon="9.5693562"><ele>228.0</ele><time>2026-05-06T13:07:50.66Z</time></trkpt><trkpt lat="45.6828859" lon="9.5694064"><ele>228.0</ele><time>2026-05-06T13:07:51.651Z</time></trkpt><trkpt lat="45.6829652" lon="9.5694603"><ele>228.0</ele><time>2026-05-06T13:07:52.645Z</time></trkpt><trkpt lat="45.6830462" lon="9.5695159"><ele>228.0</ele><time>2026-05-06T13:07:53.628Z</time></trkpt><trkpt lat="45.6831327" lon="9.5695745"><ele>227.8</ele><time>2026-05-06T13:07:54.633Z</time></trkpt><trkpt lat="45.683225" lon="9.5696326"><ele>227.60000000000002</ele><time>2026-05-06T13:07:55.629Z</time></trkpt><trkpt lat="45.6833179" lon="9.5696886"><ele>227.39999999999998</ele><time>2026-05-06T13:07:56.629Z</time></trkpt><trkpt lat="45.6834075" lon="9.5697438"><ele>227.2</ele><time>2026-05-06T13:07:57.621Z</time></trkpt><trkpt lat="45.6834996" lon="9.5698046"><ele>227.0</ele><time>2026-05-06T13:07:58.639Z</time></trkpt><trkpt lat="45.6835939" lon="9.5698653"><ele>227.2</ele><time>2026-05-06T13:07:59.635Z</time></trkpt><trkpt lat="45.6836852" lon="9.5699245"><ele>227.39999999999998</ele><time>2026-05-06T13:08:00.634Z</time></trkpt><trkpt lat="45.6837785" lon="9.5699871"><ele>227.60000000000002</ele><time>2026-05-06T13:08:01.638Z</time></trkpt><trkpt lat="45.6838697" lon="9.5700486"><ele>227.8</ele><time>2026-05-06T13:08:02.628Z</time></trkpt><trkpt lat="45.6839584" lon="9.57011"><ele>228.0</ele><time>2026-05-06T13:08:03.644Z</time></trkpt><trkpt lat="45.6840483" lon="9.5701661"><ele>228.0</ele><time>2026-05-06T13:08:04.637Z</time></trkpt><trkpt lat="45.6841421" lon="9.5702223"><ele>228.0</ele><time>2026-05-06T13:08:05.649Z</time></trkpt><trkpt lat="45.6842286" lon="9.5702751"><ele>228.0</ele><time>2026-05-06T13:08:06.636Z</time></trkpt><trkpt lat="45.6843023" lon="9.5703296"><ele>228.0</ele><time>2026-05-06T13:08:07.631Z</time></trkpt><trkpt lat="45.6843686" lon="9.570382"><ele>228.0</ele><time>2026-05-06T13:08:08.637Z</time></trkpt><trkpt lat="45.684417" lon="9.5704533"><ele>228.0</ele><time>2026-05-06T13:08:09.631Z</time></trkpt><trkpt lat="45.6844472" lon="9.5705416"><ele>228.0</ele><time>2026-05-06T13:08:10.63Z</time></trkpt><trkpt lat="45.6844748" lon="9.570637"><ele>228.0</ele><time>2026-05-06T13:08:11.629Z</time></trkpt><trkpt lat="45.6845218" lon="9.5707333"><ele>228.0</ele><time>2026-05-06T13:08:12.632Z</time></trkpt><trkpt lat="45.6845674" lon="9.570825"><ele>228.0</ele><time>2026-05-06T13:08:13.641Z</time></trkpt><trkpt lat="45.6846427" lon="9.5708936"><ele>228.0</ele><time>2026-05-06T13:08:14.647Z</time></trkpt><trkpt lat="45.6847282" lon="9.570956"><ele>228.0</ele><time>2026-05-06T13:08:15.638Z</time></trkpt><trkpt lat="45.6848211" lon="9.5710003"><ele>228.0</ele><time>2026-05-06T13:08:16.637Z</time></trkpt><trkpt lat="45.684915" lon="9.5710387"><ele>228.0</ele><time>2026-05-06T13:08:17.633Z</time></trkpt><trkpt lat="45.6850146" lon="9.5710443"><ele>228.0</ele><time>2026-05-06T13:08:18.664Z</time></trkpt><trkpt lat="45.6851152" lon="9.5710467"><ele>228.0</ele><time>2026-05-06T13:08:19.635Z</time></trkpt><trkpt lat="45.6852195" lon="9.5710492"><ele>228.0</ele><time>2026-05-06T13:08:20.637Z</time></trkpt><trkpt lat="45.6853253" lon="9.571055"><ele>227.75</ele><time>2026-05-06T13:08:21.637Z</time></trkpt><trkpt lat="45.685435" lon="9.5710926"><ele>227.5</ele><time>2026-05-06T13:08:22.636Z</time></trkpt><trkpt lat="45.6855365" lon="9.5711516"><ele>227.25</ele><time>2026-05-06T13:08:23.634Z</time></trkpt><trkpt lat="45.6856381" lon="9.5712206"><ele>227.0</ele><time>2026-05-06T13:08:24.639Z</time></trkpt><trkpt lat="45.6857428" lon="9.5712927"><ele>227.75</ele><time>2026-05-06T13:08:25.641Z</time></trkpt><trkpt lat="45.6858468" lon="9.5713595"><ele>228.5</ele><time>2026-05-06T13:08:26.648Z</time></trkpt><trkpt lat="45.6859535" lon="9.571432"><ele>229.25</ele><time>2026-05-06T13:08:27.634Z</time></trkpt><trkpt lat="45.6860632" lon="9.5715067"><ele>230.0</ele><time>2026-05-06T13:08:28.64Z</time></trkpt><trkpt lat="45.6861751" lon="9.5715841"><ele>230.0</ele><time>2026-05-06T13:08:29.64Z</time></trkpt><trkpt lat="45.6862869" lon="9.5716545"><ele>230.0</ele><time>2026-05-06T13:08:30.634Z</time></trkpt><trkpt lat="45.6863976" lon="9.5717263"><ele>230.0</ele><time>2026-05-06T13:08:31.636Z</time></trkpt><trkpt lat="45.6865118" lon="9.5717981"><ele>230.0</ele><time>2026-05-06T13:08:32.645Z</time></trkpt><trkpt lat="45.6866263" lon="9.5718734"><ele>230.0</ele><time>2026-05-06T13:08:33.639Z</time></trkpt><trkpt lat="45.6867454" lon="9.5719526"><ele>230.0</ele><time>2026-05-06T13:08:34.628Z</time></trkpt><trkpt lat="45.6868619" lon="9.5720322"><ele>230.0</ele><time>2026-05-06T13:08:35.642Z</time></trkpt><trkpt lat="45.686981" lon="9.5721097"><ele>230.0</ele><time>2026-05-06T13:08:36.636Z</time></trkpt><trkpt lat="45.6871004" lon="9.5721882"><ele>230.0</ele><time>2026-05-06T13:08:37.627Z</time></trkpt><trkpt lat="45.6872151" lon="9.572263"><ele>230.0</ele><time>2026-05-06T13:08:38.645Z</time></trkpt><trkpt lat="45.6873231" lon="9.5723379"><ele>230.0</ele><time>2026-05-06T13:08:39.64Z</time></trkpt><trkpt lat="45.687424" lon="9.5724172"><ele>230.0</ele><time>2026-05-06T13:08:40.644Z</time></trkpt><trkpt lat="45.6875255" lon="9.5724918"><ele>230.00000000000003</ele><time>2026-05-06T13:08:41.647Z</time></trkpt><trkpt lat="45.6876187" lon="9.5725633"><ele>230.0</ele><time>2026-05-06T13:08:42.64Z</time></trkpt><trkpt lat="45.6876793" lon="9.5726272"><ele>230.0</ele><time>2026-05-06T13:08:43.635Z</time></trkpt><trkpt lat="45.6877296" lon="9.5726839"><ele>230.0</ele><time>2026-05-06T13:08:44.644Z</time></trkpt><trkpt lat="45.6877821" lon="9.5727437"><ele>230.00000000000003</ele><time>2026-05-06T13:08:45.629Z</time></trkpt><trkpt lat="45.6878457" lon="9.5728059"><ele>230.0</ele><time>2026-05-06T13:08:46.632Z</time></trkpt><trkpt lat="45.6879027" lon="9.5728577"><ele>230.2</ele><time>2026-05-06T13:08:47.633Z</time></trkpt><trkpt lat="45.6880356" lon="9.5728971"><ele>230.4</ele><time>2026-05-06T13:08:49.664Z</time></trkpt><trkpt lat="45.6881213" lon="9.5729076"><ele>230.60000000000002</ele><time>2026-05-06T13:08:50.622Z</time></trkpt><trkpt lat="45.6882227" lon="9.5729321"><ele>230.8</ele><time>2026-05-06T13:08:51.647Z</time></trkpt><trkpt lat="45.6883182" lon="9.5729853"><ele>231.0</ele><time>2026-05-06T13:08:52.631Z</time></trkpt><trkpt lat="45.6884173" lon="9.5730524"><ele>231.0</ele><time>2026-05-06T13:08:53.622Z</time></trkpt><trkpt lat="45.6885281" lon="9.5731253"><ele>231.0</ele><time>2026-05-06T13:08:54.64Z</time></trkpt><trkpt lat="45.6886503" lon="9.5732034"><ele>231.0</ele><time>2026-05-06T13:08:55.648Z</time></trkpt><trkpt lat="45.6887718" lon="9.5732838"><ele>231.0</ele><time>2026-05-06T13:08:56.648Z</time></trkpt><trkpt lat="45.6888948" lon="9.5733629"><ele>231.0</ele><time>2026-05-06T13:08:57.649Z</time></trkpt><trkpt lat="45.6890214" lon="9.5734463"><ele>231.0</ele><time>2026-05-06T13:08:58.645Z</time></trkpt><trkpt lat="45.6891476" lon="9.5735282"><ele>231.0</ele><time>2026-05-06T13:08:59.639Z</time></trkpt><trkpt lat="45.6892757" lon="9.5736128"><ele>231.0</ele><time>2026-05-06T13:09:00.632Z</time></trkpt><trkpt lat="45.6894021" lon="9.573695"><ele>231.75</ele><time>2026-05-06T13:09:01.643Z</time></trkpt><trkpt lat="45.6895254" lon="9.5737851"><ele>232.5</ele><time>2026-05-06T13:09:02.645Z</time></trkpt><trkpt lat="45.6896447" lon="9.573884"><ele>233.25</ele><time>2026-05-06T13:09:03.642Z</time></trkpt><trkpt lat="45.6897599" lon="9.5739968"><ele>234.0</ele><time>2026-05-06T13:09:04.638Z</time></trkpt><trkpt lat="45.6898682" lon="9.5741252"><ele>234.0</ele><time>2026-05-06T13:09:05.644Z</time></trkpt><trkpt lat="45.6899705" lon="9.5742713"><ele>234.0</ele><time>2026-05-06T13:09:06.643Z</time></trkpt><trkpt lat="45.690065" lon="9.5744351"><ele>234.0</ele><time>2026-05-06T13:09:07.647Z</time></trkpt><trkpt lat="45.6901588" lon="9.5746016"><ele>234.0</ele><time>2026-05-06T13:09:08.633Z</time></trkpt><trkpt lat="45.6902432" lon="9.574773"><ele>234.0</ele><time>2026-05-06T13:09:09.646Z</time></trkpt><trkpt lat="45.6903292" lon="9.5749466"><ele>234.0</ele><time>2026-05-06T13:09:10.644Z</time></trkpt><trkpt lat="45.6904193" lon="9.5751281"><ele>234.0</ele><time>2026-05-06T13:09:11.641Z</time></trkpt><trkpt lat="45.6905101" lon="9.5753139"><ele>234.33333333333331</ele><time>2026-05-06T13:09:12.645Z</time></trkpt><trkpt lat="45.6906012" lon="9.5754993"><ele>234.66666666666666</ele><time>2026-05-06T13:09:13.635Z</time></trkpt><trkpt lat="45.6906936" lon="9.5756889"><ele>235.0</ele><time>2026-05-06T13:09:14.638Z</time></trkpt><trkpt lat="45.6907899" lon="9.5758825"><ele>235.0</ele><time>2026-05-06T13:09:15.66Z</time></trkpt><trkpt lat="45.6908875" lon="9.5760752"><ele>235.0</ele><time>2026-05-06T13:09:16.642Z</time></trkpt><trkpt lat="45.690986" lon="9.5762719"><ele>235.0</ele><time>2026-05-06T13:09:17.627Z</time></trkpt><trkpt lat="45.6910852" lon="9.5764667"><ele>235.0</ele><time>2026-05-06T13:09:18.646Z</time></trkpt><trkpt lat="45.6911841" lon="9.5766635"><ele>235.0</ele><time>2026-05-06T13:09:19.63Z</time></trkpt><trkpt lat="45.6912814" lon="9.5768573"><ele>235.0</ele><time>2026-05-06T13:09:20.627Z</time></trkpt><trkpt lat="45.6913763" lon="9.5770477"><ele>235.0</ele><time>2026-05-06T13:09:21.635Z</time></trkpt><trkpt lat="45.6914685" lon="9.5772327"><ele>235.0</ele><time>2026-05-06T13:09:22.649Z</time></trkpt><trkpt lat="45.6915562" lon="9.5774084"><ele>235.0</ele><time>2026-05-06T13:09:23.642Z</time></trkpt><trkpt lat="45.6916394" lon="9.5775715"><ele>235.0</ele><time>2026-05-06T13:09:24.626Z</time></trkpt><trkpt lat="45.6917082" lon="9.5777068"><ele>235.0</ele><time>2026-05-06T13:09:25.634Z</time></trkpt><trkpt lat="45.6917635" lon="9.5778257"><ele>235.0</ele><time>2026-05-06T13:09:26.628Z</time></trkpt><trkpt lat="45.6918073" lon="9.5779382"><ele>235.0</ele><time>2026-05-06T13:09:27.619Z</time></trkpt><trkpt lat="45.6918141" lon="9.5780543"><ele>235.0</ele><time>2026-05-06T13:09:28.633Z</time></trkpt><trkpt lat="45.6918129" lon="9.578175"><ele>234.99999999999997</ele><time>2026-05-06T13:09:29.621Z</time></trkpt><trkpt lat="45.6917984" lon="9.5782804"><ele>235.0</ele><time>2026-05-06T13:09:30.637Z</time></trkpt><trkpt lat="45.6917947" lon="9.5783866"><ele>235.0</ele><time>2026-05-06T13:09:31.629Z</time></trkpt><trkpt lat="45.6918194" lon="9.5784776"><ele>235.0</ele><time>2026-05-06T13:09:32.628Z</time></trkpt><trkpt lat="45.6919072" lon="9.5785886"><ele>234.99999999999997</ele><time>2026-05-06T13:09:34.634Z</time></trkpt><trkpt lat="45.6919723" lon="9.5785714"><ele>235.0</ele><time>2026-05-06T13:09:35.623Z</time></trkpt><trkpt lat="45.6920322" lon="9.5785316"><ele>234.83333333333331</ele><time>2026-05-06T13:09:36.643Z</time></trkpt><trkpt lat="45.6920915" lon="9.5784722"><ele>234.66666666666666</ele><time>2026-05-06T13:09:37.631Z</time></trkpt><trkpt lat="45.6921481" lon="9.5784121"><ele>234.5</ele><time>2026-05-06T13:09:38.643Z</time></trkpt><trkpt lat="45.692268" lon="9.5784064"><ele>234.33333333333331</ele><time>2026-05-06T13:09:40.637Z</time></trkpt><trkpt lat="45.6923363" lon="9.5784072"><ele>234.16666666666666</ele><time>2026-05-06T13:09:41.64Z</time></trkpt><trkpt lat="45.6924108" lon="9.5784387"><ele>234.0</ele><time>2026-05-06T13:09:42.638Z</time></trkpt><trkpt lat="45.6924878" lon="9.5784731"><ele>234.0</ele><time>2026-05-06T13:09:43.646Z</time></trkpt><trkpt lat="45.6925653" lon="9.5785101"><ele>234.0</ele><time>2026-05-06T13:09:44.637Z</time></trkpt><trkpt lat="45.6926431" lon="9.5785452"><ele>234.0</ele><time>2026-05-06T13:09:45.629Z</time></trkpt><trkpt lat="45.6927195" lon="9.5785776"><ele>234.0</ele><time>2026-05-06T13:09:46.648Z</time></trkpt><trkpt lat="45.6927965" lon="9.5786105"><ele>234.0</ele><time>2026-05-06T13:09:47.649Z</time></trkpt><trkpt lat="45.6928737" lon="9.5786407"><ele>234.0</ele><time>2026-05-06T13:09:48.641Z</time></trkpt><trkpt lat="45.6929476" lon="9.5786664"><ele>234.33333333333334</ele><time>2026-05-06T13:09:49.633Z</time></trkpt><trkpt lat="45.6930156" lon="9.5786898"><ele>234.66666666666669</ele><time>2026-05-06T13:09:50.638Z</time></trkpt><trkpt lat="45.6930858" lon="9.5787136"><ele>235.0</ele><time>2026-05-06T13:09:51.639Z</time></trkpt><trkpt lat="45.6931823" lon="9.5787392"><ele>235.33333333333334</ele><time>2026-05-06T13:09:53.641Z</time></trkpt><trkpt lat="45.6932572" lon="9.578739"><ele>235.66666666666669</ele><time>2026-05-06T13:09:56.643Z</time></trkpt><trkpt lat="45.6933278" lon="9.5787609"><ele>236.0</ele><time>2026-05-06T13:09:59.641Z</time></trkpt><trkpt lat="45.6933991" lon="9.5787849"><ele>236.0</ele><time>2026-05-06T13:10:01.633Z</time></trkpt><trkpt lat="45.6934926" lon="9.5788887"><ele>236.0</ele><time>2026-05-06T13:10:03.619Z</time></trkpt><trkpt lat="45.6935616" lon="9.5790212"><ele>236.0</ele><time>2026-05-06T13:10:05.636Z</time></trkpt><trkpt lat="45.6936673" lon="9.5791048"><ele>236.0</ele><time>2026-05-06T13:10:07.646Z</time></trkpt><trkpt lat="45.6937805" lon="9.5791174"><ele>236.0</ele><time>2026-05-06T13:10:09.636Z</time></trkpt><trkpt lat="45.6938424" lon="9.5790558"><ele>236.0</ele><time>2026-05-06T13:10:10.632Z</time></trkpt><trkpt lat="45.6938942" lon="9.5789719"><ele>236.0</ele><time>2026-05-06T13:10:11.634Z</time></trkpt><trkpt lat="45.6939341" lon="9.57889"><ele>236.0</ele><time>2026-05-06T13:10:12.656Z</time></trkpt><trkpt lat="45.6939771" lon="9.5787981"><ele>236.0</ele><time>2026-05-06T13:10:13.645Z</time></trkpt><trkpt lat="45.6940289" lon="9.5787285"><ele>236.0</ele><time>2026-05-06T13:10:14.654Z</time></trkpt><trkpt lat="45.6941001" lon="9.5786923"><ele>236.0</ele><time>2026-05-06T13:10:15.638Z</time></trkpt><trkpt lat="45.6941838" lon="9.5786666"><ele>236.20000000000002</ele><time>2026-05-06T13:10:16.634Z</time></trkpt><trkpt lat="45.6942818" lon="9.5786726"><ele>236.40000000000003</ele><time>2026-05-06T13:10:17.639Z</time></trkpt><trkpt lat="45.6943926" lon="9.5786787"><ele>236.6</ele><time>2026-05-06T13:10:18.639Z</time></trkpt><trkpt lat="45.6944967" lon="9.5786681"><ele>236.8</ele><time>2026-05-06T13:10:19.707Z</time></trkpt><trkpt lat="45.6946025" lon="9.5786536"><ele>237.0</ele><time>2026-05-06T13:10:20.643Z</time></trkpt><trkpt lat="45.6947229" lon="9.5786448"><ele>237.0</ele><time>2026-05-06T13:10:21.636Z</time></trkpt><trkpt lat="45.694845" lon="9.5786301"><ele>237.0</ele><time>2026-05-06T13:10:22.619Z</time></trkpt><trkpt lat="45.6949687" lon="9.5786119"><ele>237.0</ele><time>2026-05-06T13:10:23.629Z</time></trkpt><trkpt lat="45.6950919" lon="9.5786078"><ele>237.0</ele><time>2026-05-06T13:10:24.637Z</time></trkpt><trkpt lat="45.6952182" lon="9.5785957"><ele>237.0</ele><time>2026-05-06T13:10:25.629Z</time></trkpt><trkpt lat="45.6953432" lon="9.578588"><ele>237.0</ele><time>2026-05-06T13:10:26.639Z</time></trkpt><trkpt lat="45.69547" lon="9.5785806"><ele>237.0</ele><time>2026-05-06T13:10:27.64Z</time></trkpt><trkpt lat="45.6955961" lon="9.5785742"><ele>237.0</ele><time>2026-05-06T13:10:28.633Z</time></trkpt><trkpt lat="45.6957251" lon="9.5785756"><ele>237.0</ele><time>2026-05-06T13:10:29.652Z</time></trkpt><trkpt lat="45.6958528" lon="9.5785689"><ele>237.0</ele><time>2026-05-06T13:10:30.63Z</time></trkpt><trkpt lat="45.695985" lon="9.5785615"><ele>237.0</ele><time>2026-05-06T13:10:31.636Z</time></trkpt><trkpt lat="45.6961213" lon="9.5785558"><ele>237.0</ele><time>2026-05-06T13:10:32.628Z</time></trkpt><trkpt lat="45.6962609" lon="9.5785473"><ele>237.25</ele><time>2026-05-06T13:10:33.631Z</time></trkpt><trkpt lat="45.6963955" lon="9.578538"><ele>237.5</ele><time>2026-05-06T13:10:34.653Z</time></trkpt><trkpt lat="45.6965367" lon="9.5785332"><ele>237.75</ele><time>2026-05-06T13:10:35.64Z</time></trkpt><trkpt lat="45.6966821" lon="9.5785206"><ele>238.0</ele><time>2026-05-06T13:10:36.63Z</time></trkpt><trkpt lat="45.6968321" lon="9.57851"><ele>238.5</ele><time>2026-05-06T13:10:37.624Z</time></trkpt><trkpt lat="45.6969774" lon="9.5784825"><ele>239.0</ele><time>2026-05-06T13:10:38.623Z</time></trkpt><trkpt lat="45.6971272" lon="9.5784586"><ele>239.5</ele><time>2026-05-06T13:10:39.629Z</time></trkpt><trkpt lat="45.6972717" lon="9.5784396"><ele>240.0</ele><time>2026-05-06T13:10:40.634Z</time></trkpt><trkpt lat="45.6974196" lon="9.5784206"><ele>240.0</ele><time>2026-05-06T13:10:41.634Z</time></trkpt><trkpt lat="45.6975651" lon="9.5784068"><ele>240.0</ele><time>2026-05-06T13:10:42.617Z</time></trkpt><trkpt lat="45.6977192" lon="9.5783977"><ele>240.0</ele><time>2026-05-06T13:10:43.639Z</time></trkpt><trkpt lat="45.6978703" lon="9.5783868"><ele>240.33333333333331</ele><time>2026-05-06T13:10:44.633Z</time></trkpt><trkpt lat="45.698023" lon="9.578378"><ele>240.66666666666666</ele><time>2026-05-06T13:10:45.635Z</time></trkpt><trkpt lat="45.698177" lon="9.5783722"><ele>241.0</ele><time>2026-05-06T13:10:46.637Z</time></trkpt><trkpt lat="45.6983295" lon="9.5783628"><ele>241.0</ele><time>2026-05-06T13:10:47.622Z</time></trkpt><trkpt lat="45.6984786" lon="9.5783496"><ele>241.0</ele><time>2026-05-06T13:10:48.631Z</time></trkpt><trkpt lat="45.6986215" lon="9.5783409"><ele>241.0</ele><time>2026-05-06T13:10:49.632Z</time></trkpt><trkpt lat="45.6987654" lon="9.5783324"><ele>241.0</ele><time>2026-05-06T13:10:50.629Z</time></trkpt><trkpt lat="45.6989072" lon="9.5783255"><ele>241.25</ele><time>2026-05-06T13:10:51.635Z</time></trkpt><trkpt lat="45.6990443" lon="9.5783164"><ele>241.5</ele><time>2026-05-06T13:10:52.623Z</time></trkpt><trkpt lat="45.6991809" lon="9.5783044"><ele>241.75</ele><time>2026-05-06T13:10:53.633Z</time></trkpt><trkpt lat="45.6993175" lon="9.5782915"><ele>242.0</ele><time>2026-05-06T13:10:54.641Z</time></trkpt><trkpt lat="45.6994497" lon="9.5782878"><ele>242.0</ele><time>2026-05-06T13:10:55.629Z</time></trkpt><trkpt lat="45.6995794" lon="9.5782869"><ele>242.0</ele><time>2026-05-06T13:10:56.627Z</time></trkpt><trkpt lat="45.699709" lon="9.5782867"><ele>242.0</ele><time>2026-05-06T13:10:57.638Z</time></trkpt><trkpt lat="45.6998343" lon="9.5782833"><ele>242.0</ele><time>2026-05-06T13:10:58.639Z</time></trkpt><trkpt lat="45.6999422" lon="9.5782871"><ele>242.0</ele><time>2026-05-06T13:10:59.636Z</time></trkpt><trkpt lat="45.7000233" lon="9.5783031"><ele>242.0</ele><time>2026-05-06T13:11:00.652Z</time></trkpt><trkpt lat="45.7001385" lon="9.5783711"><ele>242.0</ele><time>2026-05-06T13:11:02.627Z</time></trkpt><trkpt lat="45.7002465" lon="9.5784796"><ele>242.0</ele><time>2026-05-06T13:11:04.633Z</time></trkpt><trkpt lat="45.7003028" lon="9.5785529"><ele>242.0</ele><time>2026-05-06T13:11:05.644Z</time></trkpt><trkpt lat="45.700358" lon="9.5786306"><ele>242.6</ele><time>2026-05-06T13:11:06.627Z</time></trkpt><trkpt lat="45.7004074" lon="9.5787111"><ele>243.2</ele><time>2026-05-06T13:11:07.636Z</time></trkpt><trkpt lat="45.7004489" lon="9.5788086"><ele>243.8</ele><time>2026-05-06T13:11:08.637Z</time></trkpt><trkpt lat="45.7004592" lon="9.5789273"><ele>244.4</ele><time>2026-05-06T13:11:09.632Z</time></trkpt><trkpt lat="45.7004423" lon="9.5790667"><ele>245.0</ele><time>2026-05-06T13:11:10.642Z</time></trkpt><trkpt lat="45.7004064" lon="9.5792256"><ele>245.0</ele><time>2026-05-06T13:11:11.637Z</time></trkpt><trkpt lat="45.7003694" lon="9.5793822"><ele>245.0</ele><time>2026-05-06T13:11:12.634Z</time></trkpt><trkpt lat="45.7003327" lon="9.5795469"><ele>245.0</ele><time>2026-05-06T13:11:13.637Z</time></trkpt><trkpt lat="45.7002891" lon="9.5797284"><ele>245.0</ele><time>2026-05-06T13:11:14.633Z</time></trkpt><trkpt lat="45.7002426" lon="9.5799111"><ele>244.0</ele><time>2026-05-06T13:11:15.643Z</time></trkpt><trkpt lat="45.7001914" lon="9.5800951"><ele>243.0</ele><time>2026-05-06T13:11:16.64Z</time></trkpt><trkpt lat="45.7001439" lon="9.5802859"><ele>242.0</ele><time>2026-05-06T13:11:17.632Z</time></trkpt><trkpt lat="45.700098" lon="9.5804778"><ele>241.0</ele><time>2026-05-06T13:11:18.631Z</time></trkpt><trkpt lat="45.7000597" lon="9.5806787"><ele>240.66666666666666</ele><time>2026-05-06T13:11:19.634Z</time></trkpt><trkpt lat="45.7000163" lon="9.580877"><ele>240.33333333333331</ele><time>2026-05-06T13:11:20.627Z</time></trkpt><trkpt lat="45.6999699" lon="9.5810828"><ele>240.0</ele><time>2026-05-06T13:11:21.63Z</time></trkpt><trkpt lat="45.6999234" lon="9.5812939"><ele>240.0</ele><time>2026-05-06T13:11:22.632Z</time></trkpt><trkpt lat="45.6998767" lon="9.5815028"><ele>240.0</ele><time>2026-05-06T13:11:23.641Z</time></trkpt><trkpt lat="45.6998291" lon="9.5817102"><ele>240.0</ele><time>2026-05-06T13:11:24.63Z</time></trkpt><trkpt lat="45.6997853" lon="9.5819134"><ele>240.0</ele><time>2026-05-06T13:11:25.621Z</time></trkpt><trkpt lat="45.6997394" lon="9.5821188"><ele>240.0</ele><time>2026-05-06T13:11:26.632Z</time></trkpt><trkpt lat="45.6996945" lon="9.5823233"><ele>240.0</ele><time>2026-05-06T13:11:27.644Z</time></trkpt><trkpt lat="45.6996505" lon="9.5825259"><ele>240.0</ele><time>2026-05-06T13:11:28.63Z</time></trkpt><trkpt lat="45.6996083" lon="9.5827298"><ele>240.75</ele><time>2026-05-06T13:11:29.621Z</time></trkpt><trkpt lat="45.6995708" lon="9.5829353"><ele>241.5</ele><time>2026-05-06T13:11:30.629Z</time></trkpt><trkpt lat="45.6995385" lon="9.5831413"><ele>242.25</ele><time>2026-05-06T13:11:31.633Z</time></trkpt><trkpt lat="45.6995117" lon="9.5833482"><ele>243.0</ele><time>2026-05-06T13:11:32.63Z</time></trkpt><trkpt lat="45.6994869" lon="9.5835558"><ele>243.0</ele><time>2026-05-06T13:11:33.638Z</time></trkpt><trkpt lat="45.6994633" lon="9.5837626"><ele>243.0</ele><time>2026-05-06T13:11:34.624Z</time></trkpt><trkpt lat="45.6994504" lon="9.5839705"><ele>243.0</ele><time>2026-05-06T13:11:35.633Z</time></trkpt><trkpt lat="45.6994404" lon="9.5841757"><ele>243.0</ele><time>2026-05-06T13:11:36.642Z</time></trkpt><trkpt lat="45.6994332" lon="9.5843865"><ele>243.25</ele><time>2026-05-06T13:11:37.615Z</time></trkpt><trkpt lat="45.6994299" lon="9.5845896"><ele>243.5</ele><time>2026-05-06T13:11:38.635Z</time></trkpt><trkpt lat="45.6994403" lon="9.5848047"><ele>243.75</ele><time>2026-05-06T13:11:39.618Z</time></trkpt><trkpt lat="45.6994549" lon="9.5850172"><ele>244.0</ele><time>2026-05-06T13:11:40.63Z</time></trkpt><trkpt lat="45.6994725" lon="9.5852386"><ele>243.66666666666666</ele><time>2026-05-06T13:11:41.623Z</time></trkpt><trkpt lat="45.6994994" lon="9.5854547"><ele>243.33333333333331</ele><time>2026-05-06T13:11:42.619Z</time></trkpt><trkpt lat="45.6995302" lon="9.5856719"><ele>243.0</ele><time>2026-05-06T13:11:43.631Z</time></trkpt><trkpt lat="45.6995617" lon="9.5858949"><ele>243.0</ele><time>2026-05-06T13:11:44.614Z</time></trkpt><trkpt lat="45.6995997" lon="9.5861129"><ele>243.0</ele><time>2026-05-06T13:11:45.617Z</time></trkpt><trkpt lat="45.6996365" lon="9.5863339"><ele>243.0</ele><time>2026-05-06T13:11:46.624Z</time></trkpt><trkpt lat="45.6996743" lon="9.5865487"><ele>241.33333333333331</ele><time>2026-05-06T13:11:47.623Z</time></trkpt><trkpt lat="45.6997184" lon="9.5867585"><ele>239.66666666666666</ele><time>2026-05-06T13:11:48.635Z</time></trkpt><trkpt lat="45.6997654" lon="9.5869776"><ele>238.0</ele><time>2026-05-06T13:11:49.621Z</time></trkpt><trkpt lat="45.6998083" lon="9.5871923"><ele>234.66666666666666</ele><time>2026-05-06T13:11:50.635Z</time></trkpt><trkpt lat="45.6998557" lon="9.5873996"><ele>231.33333333333331</ele><time>2026-05-06T13:11:51.633Z</time></trkpt><trkpt lat="45.6999018" lon="9.5876103"><ele>228.0</ele><time>2026-05-06T13:11:52.631Z</time></trkpt><trkpt lat="45.6999458" lon="9.5878283"><ele>226.66666666666669</ele><time>2026-05-06T13:11:53.634Z</time></trkpt><trkpt lat="45.6999881" lon="9.588051"><ele>225.33333333333334</ele><time>2026-05-06T13:11:54.632Z</time></trkpt><trkpt lat="45.7000301" lon="9.5882624"><ele>224.0</ele><time>2026-05-06T13:11:55.633Z</time></trkpt><trkpt lat="45.7000651" lon="9.5884728"><ele>224.66666666666669</ele><time>2026-05-06T13:11:56.626Z</time></trkpt><trkpt lat="45.7001017" lon="9.5886829"><ele>225.33333333333331</ele><time>2026-05-06T13:11:57.632Z</time></trkpt><trkpt lat="45.7001412" lon="9.5888886"><ele>226.0</ele><time>2026-05-06T13:11:58.631Z</time></trkpt><trkpt lat="45.7001801" lon="9.5890954"><ele>226.0</ele><time>2026-05-06T13:11:59.632Z</time></trkpt><trkpt lat="45.7002212" lon="9.5892987"><ele>226.0</ele><time>2026-05-06T13:12:00.617Z</time></trkpt><trkpt lat="45.700271" lon="9.5894997"><ele>226.0</ele><time>2026-05-06T13:12:01.634Z</time></trkpt><trkpt lat="45.7003231" lon="9.5897037"><ele>226.0</ele><time>2026-05-06T13:12:02.622Z</time></trkpt><trkpt lat="45.7003758" lon="9.5899065"><ele>227.0</ele><time>2026-05-06T13:12:03.629Z</time></trkpt><trkpt lat="45.7004429" lon="9.5901071"><ele>228.0</ele><time>2026-05-06T13:12:04.633Z</time></trkpt><trkpt lat="45.7005016" lon="9.5903062"><ele>229.0</ele><time>2026-05-06T13:12:05.653Z</time></trkpt><trkpt lat="45.7005556" lon="9.5905006"><ele>229.25</ele><time>2026-05-06T13:12:06.639Z</time></trkpt><trkpt lat="45.7006135" lon="9.5906853"><ele>229.5</ele><time>2026-05-06T13:12:07.639Z</time></trkpt><trkpt lat="45.7006724" lon="9.5908682"><ele>229.75</ele><time>2026-05-06T13:12:08.638Z</time></trkpt><trkpt lat="45.7007162" lon="9.5910424"><ele>230.0</ele><time>2026-05-06T13:12:09.631Z</time></trkpt><trkpt lat="45.7007592" lon="9.5912142"><ele>230.0</ele><time>2026-05-06T13:12:10.633Z</time></trkpt><trkpt lat="45.700787" lon="9.5913858"><ele>230.0</ele><time>2026-05-06T13:12:11.63Z</time></trkpt><trkpt lat="45.7007899" lon="9.5915605"><ele>230.0</ele><time>2026-05-06T13:12:12.632Z</time></trkpt><trkpt lat="45.7007679" lon="9.5917302"><ele>230.0</ele><time>2026-05-06T13:12:13.64Z</time></trkpt><trkpt lat="45.7007382" lon="9.5918818"><ele>229.50000000000003</ele><time>2026-05-06T13:12:14.624Z</time></trkpt><trkpt lat="45.7007107" lon="9.5920175"><ele>229.0</ele><time>2026-05-06T13:12:15.632Z</time></trkpt><trkpt lat="45.7006759" lon="9.5921246"><ele>228.5</ele><time>2026-05-06T13:12:16.612Z</time></trkpt><trkpt lat="45.700642" lon="9.5922131"><ele>228.0</ele><time>2026-05-06T13:12:17.641Z</time></trkpt><trkpt lat="45.7006002" lon="9.5923016"><ele>227.50000000000003</ele><time>2026-05-06T13:12:18.638Z</time></trkpt><trkpt lat="45.700566" lon="9.5923819"><ele>227.0</ele><time>2026-05-06T13:12:19.622Z</time></trkpt><trkpt lat="45.700524" lon="9.5925027"><ele>227.0</ele><time>2026-05-06T13:12:21.631Z</time></trkpt><trkpt lat="45.7004681" lon="9.5926248"><ele>227.0</ele><time>2026-05-06T13:12:23.634Z</time></trkpt><trkpt lat="45.7004152" lon="9.5927216"><ele>227.0</ele><time>2026-05-06T13:12:25.632Z</time></trkpt><trkpt lat="45.7003372" lon="9.592814"><ele>227.0</ele><time>2026-05-06T13:12:27.637Z</time></trkpt><trkpt lat="45.7002629" lon="9.5928824"><ele>227.0</ele><time>2026-05-06T13:12:28.623Z</time></trkpt><trkpt lat="45.7002021" lon="9.5929629"><ele>227.00000000000003</ele><time>2026-05-06T13:12:29.635Z</time></trkpt><trkpt lat="45.7001663" lon="9.5930517"><ele>227.0</ele><time>2026-05-06T13:12:30.636Z</time></trkpt><trkpt lat="45.7001568" lon="9.5931479"><ele>227.0</ele><time>2026-05-06T13:12:31.637Z</time></trkpt><trkpt lat="45.7001766" lon="9.5932483"><ele>227.0</ele><time>2026-05-06T13:12:32.616Z</time></trkpt><trkpt lat="45.7002123" lon="9.5933228"><ele>227.00000000000003</ele><time>2026-05-06T13:12:33.639Z</time></trkpt><trkpt lat="45.7003247" lon="9.593405"><ele>227.0</ele><time>2026-05-06T13:12:35.632Z</time></trkpt><trkpt lat="45.7003925" lon="9.5934114"><ele>227.00000000000003</ele><time>2026-05-06T13:12:36.637Z</time></trkpt><trkpt lat="45.7004673" lon="9.5934114"><ele>227.0</ele><time>2026-05-06T13:12:37.638Z</time></trkpt><trkpt lat="45.7005556" lon="9.5933914"><ele>227.0</ele><time>2026-05-06T13:12:38.632Z</time></trkpt><trkpt lat="45.7006376" lon="9.5933447"><ele>227.0</ele><time>2026-05-06T13:12:39.639Z</time></trkpt><trkpt lat="45.7007147" lon="9.5932937"><ele>227.00000000000003</ele><time>2026-05-06T13:12:40.637Z</time></trkpt><trkpt lat="45.7007787" lon="9.5932613"><ele>227.0</ele><time>2026-05-06T13:12:41.636Z</time></trkpt><trkpt lat="45.7008531" lon="9.5932379"><ele>227.00000000000003</ele><time>2026-05-06T13:12:42.634Z</time></trkpt><trkpt lat="45.7009276" lon="9.5932375"><ele>227.0</ele><time>2026-05-06T13:12:43.639Z</time></trkpt><trkpt lat="45.7009966" lon="9.5932343"><ele>227.0</ele><time>2026-05-06T13:12:44.622Z</time></trkpt><trkpt lat="45.7010641" lon="9.5932166"><ele>227.0</ele><time>2026-05-06T13:12:45.636Z</time></trkpt><trkpt lat="45.701135" lon="9.5932005"><ele>227.00000000000003</ele><time>2026-05-06T13:12:46.623Z</time></trkpt><trkpt lat="45.7012107" lon="9.5931798"><ele>227.0</ele><time>2026-05-06T13:12:47.634Z</time></trkpt><trkpt lat="45.7012992" lon="9.5931523"><ele>227.0</ele><time>2026-05-06T13:12:48.636Z</time></trkpt><trkpt lat="45.7013802" lon="9.5931258"><ele>227.0</ele><time>2026-05-06T13:12:49.636Z</time></trkpt><trkpt lat="45.7014711" lon="9.5931031"><ele>227.0</ele><time>2026-05-06T13:12:50.624Z</time></trkpt><trkpt lat="45.7015721" lon="9.5930804"><ele>227.0</ele><time>2026-05-06T13:12:51.624Z</time></trkpt><trkpt lat="45.701684" lon="9.5930551"><ele>227.0</ele><time>2026-05-06T13:12:52.639Z</time></trkpt><trkpt lat="45.7018072" lon="9.5930307"><ele>227.0</ele><time>2026-05-06T13:12:53.631Z</time></trkpt><trkpt lat="45.701941" lon="9.5930032"><ele>227.0</ele><time>2026-05-06T13:12:54.631Z</time></trkpt><trkpt lat="45.7020783" lon="9.5929869"><ele>227.0</ele><time>2026-05-06T13:12:55.645Z</time></trkpt><trkpt lat="45.7022204" lon="9.5929626"><ele>227.0</ele><time>2026-05-06T13:12:56.636Z</time></trkpt><trkpt lat="45.7023505" lon="9.5929253"><ele>227.0</ele><time>2026-05-06T13:12:57.649Z</time></trkpt><trkpt lat="45.7024783" lon="9.5928801"><ele>227.0</ele><time>2026-05-06T13:12:58.634Z</time></trkpt><trkpt lat="45.7026115" lon="9.5928362"><ele>227.0</ele><time>2026-05-06T13:12:59.639Z</time></trkpt><trkpt lat="45.7027497" lon="9.5927773"><ele>227.0</ele><time>2026-05-06T13:13:00.618Z</time></trkpt><trkpt lat="45.7028794" lon="9.5927212"><ele>227.8</ele><time>2026-05-06T13:13:01.629Z</time></trkpt><trkpt lat="45.7029969" lon="9.5926658"><ele>228.6</ele><time>2026-05-06T13:13:02.633Z</time></trkpt><trkpt lat="45.7031057" lon="9.5926122"><ele>229.40000000000003</ele><time>2026-05-06T13:13:03.633Z</time></trkpt><trkpt lat="45.7032087" lon="9.5925594"><ele>230.20000000000002</ele><time>2026-05-06T13:13:04.656Z</time></trkpt><trkpt lat="45.7032953" lon="9.5925141"><ele>231.0</ele><time>2026-05-06T13:13:05.633Z</time></trkpt><trkpt lat="45.7033786" lon="9.5924677"><ele>231.0</ele><time>2026-05-06T13:13:06.631Z</time></trkpt><trkpt lat="45.7034475" lon="9.5924275"><ele>231.0</ele><time>2026-05-06T13:13:07.633Z</time></trkpt><trkpt lat="45.7035178" lon="9.5923858"><ele>231.0</ele><time>2026-05-06T13:13:08.637Z</time></trkpt><trkpt lat="45.7035935" lon="9.5923413"><ele>231.0</ele><time>2026-05-06T13:13:09.631Z</time></trkpt><trkpt lat="45.7036808" lon="9.5922946"><ele>231.0</ele><time>2026-05-06T13:13:10.632Z</time></trkpt><trkpt lat="45.7037538" lon="9.5922434"><ele>231.0</ele><time>2026-05-06T13:13:11.647Z</time></trkpt><trkpt lat="45.70383" lon="9.5921916"><ele>231.0</ele><time>2026-05-06T13:13:12.633Z</time></trkpt><trkpt lat="45.7039144" lon="9.5921424"><ele>231.0</ele><time>2026-05-06T13:13:13.643Z</time></trkpt><trkpt lat="45.7039849" lon="9.5920889"><ele>231.0</ele><time>2026-05-06T13:13:14.624Z</time></trkpt><trkpt lat="45.7040534" lon="9.5920451"><ele>231.0</ele><time>2026-05-06T13:13:15.629Z</time></trkpt><trkpt lat="45.7041185" lon="9.5920043"><ele>231.0</ele><time>2026-05-06T13:13:16.626Z</time></trkpt><trkpt lat="45.7041834" lon="9.5919616"><ele>231.0</ele><time>2026-05-06T13:13:17.645Z</time></trkpt><trkpt lat="45.7042509" lon="9.5919196"><ele>231.0</ele><time>2026-05-06T13:13:18.634Z</time></trkpt><trkpt lat="45.7043335" lon="9.5918737"><ele>231.00000000000003</ele><time>2026-05-06T13:13:19.639Z</time></trkpt><trkpt lat="45.7044308" lon="9.5918268"><ele>231.00000000000003</ele><time>2026-05-06T13:13:20.641Z</time></trkpt><trkpt lat="45.7045364" lon="9.5917708"><ele>231.0</ele><time>2026-05-06T13:13:21.644Z</time></trkpt><trkpt lat="45.7046443" lon="9.5917076"><ele>231.0</ele><time>2026-05-06T13:13:22.625Z</time></trkpt><trkpt lat="45.704752" lon="9.5916433"><ele>230.25</ele><time>2026-05-06T13:13:23.632Z</time></trkpt><trkpt lat="45.7048579" lon="9.5915794"><ele>229.5</ele><time>2026-05-06T13:13:24.646Z</time></trkpt><trkpt lat="45.7049681" lon="9.5915156"><ele>228.75</ele><time>2026-05-06T13:13:25.616Z</time></trkpt><trkpt lat="45.7050744" lon="9.591455"><ele>228.0</ele><time>2026-05-06T13:13:26.637Z</time></trkpt><trkpt lat="45.7051773" lon="9.5913878"><ele>228.16666666666666</ele><time>2026-05-06T13:13:27.635Z</time></trkpt><trkpt lat="45.7052811" lon="9.5913288"><ele>228.33333333333331</ele><time>2026-05-06T13:13:28.629Z</time></trkpt><trkpt lat="45.7053665" lon="9.5912791"><ele>228.5</ele><time>2026-05-06T13:13:29.623Z</time></trkpt><trkpt lat="45.7054447" lon="9.5912362"><ele>228.66666666666666</ele><time>2026-05-06T13:13:30.635Z</time></trkpt><trkpt lat="45.7055142" lon="9.5911892"><ele>228.83333333333331</ele><time>2026-05-06T13:13:31.641Z</time></trkpt><trkpt lat="45.7055871" lon="9.5911529"><ele>229.0</ele><time>2026-05-06T13:13:32.633Z</time></trkpt><trkpt lat="45.7056586" lon="9.5911032"><ele>229.33333333333331</ele><time>2026-05-06T13:13:33.638Z</time></trkpt><trkpt lat="45.7057221" lon="9.591069"><ele>229.66666666666666</ele><time>2026-05-06T13:13:34.626Z</time></trkpt><trkpt lat="45.705783" lon="9.59104"><ele>230.0</ele><time>2026-05-06T13:13:35.645Z</time></trkpt><trkpt lat="45.7058561" lon="9.5909972"><ele>230.33333333333331</ele><time>2026-05-06T13:13:36.633Z</time></trkpt><trkpt lat="45.705948" lon="9.5909498"><ele>230.66666666666666</ele><time>2026-05-06T13:13:37.645Z</time></trkpt><trkpt lat="45.7060525" lon="9.5909064"><ele>231.0</ele><time>2026-05-06T13:13:38.635Z</time></trkpt><trkpt lat="45.7061476" lon="9.5908498"><ele>231.0</ele><time>2026-05-06T13:13:39.635Z</time></trkpt><trkpt lat="45.7062484" lon="9.5907956"><ele>231.0</ele><time>2026-05-06T13:13:40.633Z</time></trkpt><trkpt lat="45.706354" lon="9.590736"><ele>231.0</ele><time>2026-05-06T13:13:41.645Z</time></trkpt><trkpt lat="45.7064716" lon="9.5906636"><ele>231.0</ele><time>2026-05-06T13:13:42.637Z</time></trkpt><trkpt lat="45.7065848" lon="9.5905958"><ele>231.0</ele><time>2026-05-06T13:13:43.639Z</time></trkpt><trkpt lat="45.7066968" lon="9.5905271"><ele>231.00000000000003</ele><time>2026-05-06T13:13:44.633Z</time></trkpt><trkpt lat="45.7068051" lon="9.5904626"><ele>231.00000000000003</ele><time>2026-05-06T13:13:45.622Z</time></trkpt><trkpt lat="45.7069017" lon="9.5904054"><ele>231.0</ele><time>2026-05-06T13:13:46.629Z</time></trkpt><trkpt lat="45.7069915" lon="9.590346"><ele>231.0</ele><time>2026-05-06T13:13:47.625Z</time></trkpt><trkpt lat="45.7070856" lon="9.5902832"><ele>231.5</ele><time>2026-05-06T13:13:48.632Z</time></trkpt><trkpt lat="45.7071858" lon="9.5902127"><ele>232.0</ele><time>2026-05-06T13:13:49.636Z</time></trkpt><trkpt lat="45.7072902" lon="9.5901332"><ele>232.5</ele><time>2026-05-06T13:13:50.63Z</time></trkpt><trkpt lat="45.7073958" lon="9.5900551"><ele>233.0</ele><time>2026-05-06T13:13:51.637Z</time></trkpt><trkpt lat="45.7074992" lon="9.5899776"><ele>233.0</ele><time>2026-05-06T13:13:52.636Z</time></trkpt><trkpt lat="45.7076055" lon="9.5899045"><ele>233.0</ele><time>2026-05-06T13:13:53.63Z</time></trkpt><trkpt lat="45.7077116" lon="9.5898295"><ele>233.0</ele><time>2026-05-06T13:13:54.638Z</time></trkpt><trkpt lat="45.7078163" lon="9.5897627"><ele>233.0</ele><time>2026-05-06T13:13:55.628Z</time></trkpt><trkpt lat="45.7079212" lon="9.5896924"><ele>233.60000000000002</ele><time>2026-05-06T13:13:56.634Z</time></trkpt><trkpt lat="45.7080262" lon="9.5896213"><ele>234.20000000000002</ele><time>2026-05-06T13:13:57.637Z</time></trkpt><trkpt lat="45.7081179" lon="9.5895577"><ele>234.8</ele><time>2026-05-06T13:13:58.628Z</time></trkpt><trkpt lat="45.7082072" lon="9.5894976"><ele>235.4</ele><time>2026-05-06T13:13:59.643Z</time></trkpt><trkpt lat="45.7082834" lon="9.5894475"><ele>236.0</ele><time>2026-05-06T13:14:00.631Z</time></trkpt><trkpt lat="45.7083502" lon="9.5894041"><ele>236.00000000000003</ele><time>2026-05-06T13:14:01.641Z</time></trkpt><trkpt lat="45.7084176" lon="9.5893576"><ele>236.0</ele><time>2026-05-06T13:14:02.634Z</time></trkpt><trkpt lat="45.7084941" lon="9.589311"><ele>236.0</ele><time>2026-05-06T13:14:03.63Z</time></trkpt><trkpt lat="45.7085794" lon="9.5892684"><ele>236.0</ele><time>2026-05-06T13:14:04.642Z</time></trkpt><trkpt lat="45.7086655" lon="9.5892438"><ele>236.00000000000003</ele><time>2026-05-06T13:14:05.634Z</time></trkpt><trkpt lat="45.7087557" lon="9.5892485"><ele>236.0</ele><time>2026-05-06T13:14:06.635Z</time></trkpt><trkpt lat="45.7088399" lon="9.5892647"><ele>235.50000000000003</ele><time>2026-05-06T13:14:07.628Z</time></trkpt><trkpt lat="45.7089156" lon="9.5892798"><ele>235.0</ele><time>2026-05-06T13:14:08.637Z</time></trkpt><trkpt lat="45.7089872" lon="9.589292"><ele>234.5</ele><time>2026-05-06T13:14:09.624Z</time></trkpt><trkpt lat="45.7090674" lon="9.5892968"><ele>234.0</ele><time>2026-05-06T13:14:10.632Z</time></trkpt><trkpt lat="45.7091554" lon="9.5892981"><ele>233.50000000000003</ele><time>2026-05-06T13:14:11.644Z</time></trkpt><trkpt lat="45.7092531" lon="9.5892972"><ele>233.0</ele><time>2026-05-06T13:14:12.642Z</time></trkpt><trkpt lat="45.7093626" lon="9.5892909"><ele>232.75</ele><time>2026-05-06T13:14:13.644Z</time></trkpt><trkpt lat="45.7094787" lon="9.5892714"><ele>232.5</ele><time>2026-05-06T13:14:14.629Z</time></trkpt><trkpt lat="45.7095932" lon="9.5892528"><ele>232.25</ele><time>2026-05-06T13:14:15.636Z</time></trkpt><trkpt lat="45.7097128" lon="9.5892331"><ele>232.0</ele><time>2026-05-06T13:14:16.631Z</time></trkpt><trkpt lat="45.7098364" lon="9.5892141"><ele>232.0</ele><time>2026-05-06T13:14:17.635Z</time></trkpt><trkpt lat="45.7099582" lon="9.589199"><ele>232.0</ele><time>2026-05-06T13:14:18.635Z</time></trkpt><trkpt lat="45.7100802" lon="9.5891942"><ele>232.0</ele><time>2026-05-06T13:14:19.63Z</time></trkpt><trkpt lat="45.7102074" lon="9.58919"><ele>232.0</ele><time>2026-05-06T13:14:20.638Z</time></trkpt><trkpt lat="45.7103385" lon="9.5891856"><ele>232.0</ele><time>2026-05-06T13:14:21.631Z</time></trkpt><trkpt lat="45.7104632" lon="9.5891828"><ele>232.0</ele><time>2026-05-06T13:14:22.631Z</time></trkpt><trkpt lat="45.7105782" lon="9.5891774"><ele>232.0</ele><time>2026-05-06T13:14:23.629Z</time></trkpt><trkpt lat="45.7106925" lon="9.5891769"><ele>232.0</ele><time>2026-05-06T13:14:24.645Z</time></trkpt><trkpt lat="45.7108109" lon="9.5891778"><ele>232.0</ele><time>2026-05-06T13:14:25.628Z</time></trkpt><trkpt lat="45.7109218" lon="9.5891836"><ele>232.0</ele><time>2026-05-06T13:14:26.641Z</time></trkpt><trkpt lat="45.7110286" lon="9.5892086"><ele>232.0</ele><time>2026-05-06T13:14:27.644Z</time></trkpt><trkpt lat="45.7111241" lon="9.5892597"><ele>232.0</ele><time>2026-05-06T13:14:28.635Z</time></trkpt><trkpt lat="45.7112118" lon="9.5893174"><ele>232.0</ele><time>2026-05-06T13:14:29.626Z</time></trkpt><trkpt lat="45.7112853" lon="9.5893688"><ele>231.39999999999998</ele><time>2026-05-06T13:14:30.637Z</time></trkpt><trkpt lat="45.7113482" lon="9.5894234"><ele>230.79999999999998</ele><time>2026-05-06T13:14:31.62Z</time></trkpt><trkpt lat="45.7113904" lon="9.5894993"><ele>230.2</ele><time>2026-05-06T13:14:32.636Z</time></trkpt><trkpt lat="45.7114068" lon="9.5896623"><ele>229.6</ele><time>2026-05-06T13:14:34.635Z</time></trkpt><trkpt lat="45.7113808" lon="9.5898261"><ele>229.0</ele><time>2026-05-06T13:14:36.636Z</time></trkpt><trkpt lat="45.7113522" lon="9.5899337"><ele>228.0</ele><time>2026-05-06T13:14:37.633Z</time></trkpt><trkpt lat="45.7113033" lon="9.5900566"><ele>227.0</ele><time>2026-05-06T13:14:38.636Z</time></trkpt><trkpt lat="45.7112423" lon="9.5901883"><ele>226.0</ele><time>2026-05-06T13:14:39.635Z</time></trkpt><trkpt lat="45.7111777" lon="9.59033"><ele>225.0</ele><time>2026-05-06T13:14:40.633Z</time></trkpt><trkpt lat="45.7111043" lon="9.5904778"><ele>226.75</ele><time>2026-05-06T13:14:41.637Z</time></trkpt><trkpt lat="45.7110323" lon="9.5906384"><ele>228.5</ele><time>2026-05-06T13:14:42.637Z</time></trkpt><trkpt lat="45.7109614" lon="9.5907975"><ele>230.25</ele><time>2026-05-06T13:14:43.641Z</time></trkpt><trkpt lat="45.7108887" lon="9.5909735"><ele>232.0</ele><time>2026-05-06T13:14:44.63Z</time></trkpt><trkpt lat="45.7108469" lon="9.5911642"><ele>231.75</ele><time>2026-05-06T13:14:45.625Z</time></trkpt><trkpt lat="45.7108339" lon="9.5913602"><ele>231.5</ele><time>2026-05-06T13:14:46.624Z</time></trkpt><trkpt lat="45.7108292" lon="9.5915527"><ele>231.25</ele><time>2026-05-06T13:14:47.645Z</time></trkpt><trkpt lat="45.7108204" lon="9.5917415"><ele>231.0</ele><time>2026-05-06T13:14:48.64Z</time></trkpt><trkpt lat="45.7108129" lon="9.5919151"><ele>231.66666666666666</ele><time>2026-05-06T13:14:49.629Z</time></trkpt><trkpt lat="45.7108047" lon="9.5920458"><ele>232.33333333333331</ele><time>2026-05-06T13:14:50.635Z</time></trkpt><trkpt lat="45.7107974" lon="9.5921648"><ele>233.0</ele><time>2026-05-06T13:14:51.634Z</time></trkpt><trkpt lat="45.7107929" lon="9.5922587"><ele>233.66666666666666</ele><time>2026-05-06T13:14:52.635Z</time></trkpt><trkpt lat="45.7107743" lon="9.592429"><ele>234.33333333333331</ele><time>2026-05-06T13:14:54.63Z</time></trkpt><trkpt lat="45.7107674" lon="9.5925308"><ele>235.0</ele><time>2026-05-06T13:14:55.637Z</time></trkpt><trkpt lat="45.7107603" lon="9.5926539"><ele>235.0</ele><time>2026-05-06T13:14:56.627Z</time></trkpt><trkpt lat="45.7107517" lon="9.5927992"><ele>235.0</ele><time>2026-05-06T13:14:57.636Z</time></trkpt><trkpt lat="45.7107425" lon="9.5929511"><ele>235.0</ele><time>2026-05-06T13:14:58.639Z</time></trkpt><trkpt lat="45.7107312" lon="9.5931069"><ele>235.0</ele><time>2026-05-06T13:14:59.639Z</time></trkpt><trkpt lat="45.7107209" lon="9.5932799"><ele>235.0</ele><time>2026-05-06T13:15:00.631Z</time></trkpt><trkpt lat="45.7107104" lon="9.5934687"><ele>234.66666666666666</ele><time>2026-05-06T13:15:01.631Z</time></trkpt><trkpt lat="45.7107049" lon="9.5936732"><ele>234.33333333333331</ele><time>2026-05-06T13:15:02.638Z</time></trkpt><trkpt lat="45.7106963" lon="9.5938939"><ele>234.0</ele><time>2026-05-06T13:15:03.621Z</time></trkpt><trkpt lat="45.710685" lon="9.5941299"><ele>234.0</ele><time>2026-05-06T13:15:04.624Z</time></trkpt><trkpt lat="45.7106731" lon="9.5943647"><ele>234.0</ele><time>2026-05-06T13:15:05.635Z</time></trkpt><trkpt lat="45.7106648" lon="9.5946075"><ele>234.0</ele><time>2026-05-06T13:15:06.64Z</time></trkpt><trkpt lat="45.7106563" lon="9.5948467"><ele>234.66666666666669</ele><time>2026-05-06T13:15:07.633Z</time></trkpt><trkpt lat="45.7106474" lon="9.5950875"><ele>235.33333333333334</ele><time>2026-05-06T13:15:08.619Z</time></trkpt><trkpt lat="45.7106374" lon="9.5953261"><ele>236.0</ele><time>2026-05-06T13:15:09.631Z</time></trkpt><trkpt lat="45.7106292" lon="9.5955644"><ele>237.0</ele><time>2026-05-06T13:15:10.632Z</time></trkpt><trkpt lat="45.7106225" lon="9.5957945"><ele>238.0</ele><time>2026-05-06T13:15:11.639Z</time></trkpt><trkpt lat="45.7106168" lon="9.596019"><ele>239.0</ele><time>2026-05-06T13:15:12.637Z</time></trkpt><trkpt lat="45.7106098" lon="9.5962437"><ele>240.0</ele><time>2026-05-06T13:15:13.621Z</time></trkpt><trkpt lat="45.7105996" lon="9.5964653"><ele>241.0</ele><time>2026-05-06T13:15:14.633Z</time></trkpt><trkpt lat="45.7105904" lon="9.5966842"><ele>242.0</ele><time>2026-05-06T13:15:15.639Z</time></trkpt><trkpt lat="45.7105861" lon="9.5968947"><ele>242.5</ele><time>2026-05-06T13:15:16.631Z</time></trkpt><trkpt lat="45.7105784" lon="9.597108"><ele>243.0</ele><time>2026-05-06T13:15:17.634Z</time></trkpt><trkpt lat="45.7105695" lon="9.5973168"><ele>243.5</ele><time>2026-05-06T13:15:18.634Z</time></trkpt><trkpt lat="45.7105596" lon="9.5975242"><ele>244.0</ele><time>2026-05-06T13:15:19.636Z</time></trkpt><trkpt lat="45.7105538" lon="9.5977381"><ele>244.0</ele><time>2026-05-06T13:15:20.622Z</time></trkpt><trkpt lat="45.7105459" lon="9.5979505"><ele>244.0</ele><time>2026-05-06T13:15:21.627Z</time></trkpt><trkpt lat="45.7105394" lon="9.5981544"><ele>244.0</ele><time>2026-05-06T13:15:22.639Z</time></trkpt><trkpt lat="45.7105315" lon="9.5983536"><ele>244.0</ele><time>2026-05-06T13:15:23.631Z</time></trkpt><trkpt lat="45.7105201" lon="9.5985575"><ele>244.33333333333331</ele><time>2026-05-06T13:15:24.624Z</time></trkpt><trkpt lat="45.7105095" lon="9.5987693"><ele>244.66666666666669</ele><time>2026-05-06T13:15:25.635Z</time></trkpt><trkpt lat="45.7105004" lon="9.5989865"><ele>245.0</ele><time>2026-05-06T13:15:26.632Z</time></trkpt><trkpt lat="45.7104938" lon="9.5992197"><ele>245.0</ele><time>2026-05-06T13:15:27.625Z</time></trkpt><trkpt lat="45.7104858" lon="9.5994493"><ele>245.0</ele><time>2026-05-06T13:15:28.629Z</time></trkpt><trkpt lat="45.7104759" lon="9.599672"><ele>245.0</ele><time>2026-05-06T13:15:29.624Z</time></trkpt><trkpt lat="45.7104618" lon="9.59988"><ele>245.25</ele><time>2026-05-06T13:15:30.63Z</time></trkpt><trkpt lat="45.7104509" lon="9.6000533"><ele>245.5</ele><time>2026-05-06T13:15:31.637Z</time></trkpt><trkpt lat="45.7104387" lon="9.6002078"><ele>245.75</ele><time>2026-05-06T13:15:32.635Z</time></trkpt><trkpt lat="45.7104227" lon="9.6003752"><ele>246.0</ele><time>2026-05-06T13:15:33.639Z</time></trkpt><trkpt lat="45.7104053" lon="9.6005447"><ele>246.25</ele><time>2026-05-06T13:15:34.627Z</time></trkpt><trkpt lat="45.7103937" lon="9.6007125"><ele>246.5</ele><time>2026-05-06T13:15:35.627Z</time></trkpt><trkpt lat="45.7103882" lon="9.600895"><ele>246.75</ele><time>2026-05-06T13:15:36.632Z</time></trkpt><trkpt lat="45.7103813" lon="9.6010872"><ele>247.0</ele><time>2026-05-06T13:15:37.632Z</time></trkpt><trkpt lat="45.710372" lon="9.6012958"><ele>247.33333333333331</ele><time>2026-05-06T13:15:38.633Z</time></trkpt><trkpt lat="45.7103625" lon="9.6015166"><ele>247.66666666666669</ele><time>2026-05-06T13:15:39.637Z</time></trkpt><trkpt lat="45.7103507" lon="9.601755"><ele>248.0</ele><time>2026-05-06T13:15:40.633Z</time></trkpt><trkpt lat="45.7103396" lon="9.6019773"><ele>249.0</ele><time>2026-05-06T13:15:41.642Z</time></trkpt><trkpt lat="45.7103303" lon="9.6021923"><ele>250.0</ele><time>2026-05-06T13:15:42.63Z</time></trkpt><trkpt lat="45.7103196" lon="9.6023911"><ele>251.0</ele><time>2026-05-06T13:15:43.639Z</time></trkpt><trkpt lat="45.7103117" lon="9.6025859"><ele>252.0</ele><time>2026-05-06T13:15:44.64Z</time></trkpt><trkpt lat="45.7103038" lon="9.6027648"><ele>252.16666666666666</ele><time>2026-05-06T13:15:45.634Z</time></trkpt><trkpt lat="45.7102959" lon="9.6029251"><ele>252.33333333333331</ele><time>2026-05-06T13:15:46.642Z</time></trkpt><trkpt lat="45.7102927" lon="9.6030562"><ele>252.5</ele><time>2026-05-06T13:15:47.646Z</time></trkpt><trkpt lat="45.7102925" lon="9.6031498"><ele>252.66666666666666</ele><time>2026-05-06T13:15:48.627Z</time></trkpt><trkpt lat="45.7102341" lon="9.6032166"><ele>252.83333333333331</ele><time>2026-05-06T13:15:51.652Z</time></trkpt><trkpt lat="45.7101643" lon="9.6031946"><ele>253.0</ele><time>2026-05-06T13:15:53.659Z</time></trkpt><trkpt lat="45.7101065" lon="9.6031474"><ele>253.60000000000002</ele><time>2026-05-06T13:15:55.631Z</time></trkpt><trkpt lat="45.7100623" lon="9.6030606"><ele>254.20000000000002</ele><time>2026-05-06T13:15:58.653Z</time></trkpt><trkpt lat="45.7099707" lon="9.6030781"><ele>254.8</ele><time>2026-05-06T13:16:01.642Z</time></trkpt><trkpt lat="45.7098658" lon="9.603086"><ele>255.4</ele><time>2026-05-06T13:16:03.637Z</time></trkpt><trkpt lat="45.7097495" lon="9.6030893"><ele>256.0</ele><time>2026-05-06T13:16:05.637Z</time></trkpt><trkpt lat="45.709652" lon="9.6030933"><ele>255.99999999999997</ele><time>2026-05-06T13:16:07.657Z</time></trkpt><trkpt lat="45.7095856" lon="9.6030736"><ele>256.0</ele><time>2026-05-06T13:16:10.632Z</time></trkpt><trkpt lat="45.7095505" lon="9.6029897"><ele>256.0</ele><time>2026-05-06T13:16:12.63Z</time></trkpt><trkpt lat="45.7094698" lon="9.6029039"><ele>256.0</ele><time>2026-05-06T13:16:14.621Z</time></trkpt><trkpt lat="45.7093571" lon="9.6028924"><ele>255.99999999999997</ele><time>2026-05-06T13:16:16.634Z</time></trkpt><trkpt lat="45.7092941" lon="9.6028905"><ele>256.0</ele><time>2026-05-06T13:16:17.641Z</time></trkpt><trkpt lat="45.7091847" lon="9.6028873"><ele>255.49999999999997</ele><time>2026-05-06T13:16:19.62Z</time></trkpt><trkpt lat="45.709104" lon="9.6028402"><ele>255.0</ele><time>2026-05-06T13:16:21.623Z</time></trkpt><trkpt lat="45.7090865" lon="9.6027341"><ele>254.5</ele><time>2026-05-06T13:16:23.629Z</time></trkpt><trkpt lat="45.7091177" lon="9.6026243"><ele>254.0</ele><time>2026-05-06T13:16:24.63Z</time></trkpt><trkpt lat="45.7091523" lon="9.6025316"><ele>253.49999999999997</ele><time>2026-05-06T13:16:25.657Z</time></trkpt><trkpt lat="45.7092156" lon="9.6024136"><ele>253.0</ele><time>2026-05-06T13:16:27.635Z</time></trkpt><trkpt lat="45.7092753" lon="9.6023458"><ele>252.0</ele><time>2026-05-06T13:17:11.635Z</time></trkpt><trkpt lat="45.7093256" lon="9.6022281"><ele>252.0</ele><time>2026-05-06T13:17:14.635Z</time></trkpt><trkpt lat="45.7093787" lon="9.6020731"><ele>252.0</ele><time>2026-05-06T13:17:16.631Z</time></trkpt><trkpt lat="45.7094069" lon="9.6019494"><ele>249.0</ele><time>2026-05-06T13:17:18.636Z</time></trkpt></trkseg></trk></gpx>